<?xml version="1.0" encoding="UTF-8" standalone="no" ?>
<gpx xmlns="http://www.topografix.com/GPX/1/1" xmlns:xsi="http://www.w3.org/2001/XMLSchema-instance" xsi:schemaLocation="http://www.topografix.com/GPX/1/1 http://www.topografix.com/GPX/1/1/gpx.xsd" version="1.1" creator="VisuGPX - https://www.visugpx.com">
  <metadata>
    <name>Moyenne distance Longchaumois</name>
    <desc><![CDATA[CO Moyenne distance lors du Week end 0 Jura 2014]]></desc>
  </metadata>
  <trk>
    <name><![CDATA[moyenne distance]]></name>
    <trkseg>
      <trkpt lat="46.45238" lon="5.96097">
        <ele>1053.5999755859</ele>
        <time>2014-05-31T11:46:02.000Z</time>
      </trkpt>
      <trkpt lat="46.45228" lon="5.96089">
        <ele>1054</ele>
        <time>2014-05-31T11:46:07.000Z</time>
      </trkpt>
      <trkpt lat="46.45212" lon="5.96071">
        <ele>1054.8000488281</ele>
        <time>2014-05-31T11:46:12.000Z</time>
      </trkpt>
      <trkpt lat="46.45193" lon="5.96055">
        <ele>1056.8000488281</ele>
        <time>2014-05-31T11:46:18.000Z</time>
      </trkpt>
      <trkpt lat="46.45183" lon="5.96047">
        <ele>1058.1999511719</ele>
        <time>2014-05-31T11:46:22.000Z</time>
      </trkpt>
      <trkpt lat="46.45176" lon="5.96045">
        <ele>1059.4000244141</ele>
        <time>2014-05-31T11:46:26.000Z</time>
      </trkpt>
      <trkpt lat="46.45173" lon="5.96033">
        <ele>1060</ele>
        <time>2014-05-31T11:46:31.000Z</time>
      </trkpt>
      <trkpt lat="46.4517" lon="5.96021">
        <ele>1060.5999755859</ele>
        <time>2014-05-31T11:46:35.000Z</time>
      </trkpt>
      <trkpt lat="46.45169" lon="5.96018">
        <ele>1060.5999755859</ele>
        <time>2014-05-31T11:46:37.000Z</time>
      </trkpt>
      <trkpt lat="46.45165" lon="5.96006">
        <ele>1061.4000244141</ele>
        <time>2014-05-31T11:46:42.000Z</time>
      </trkpt>
      <trkpt lat="46.45164" lon="5.96002">
        <ele>1061.5999755859</ele>
        <time>2014-05-31T11:46:44.000Z</time>
      </trkpt>
      <trkpt lat="46.45162" lon="5.95998">
        <ele>1061.8000488281</ele>
        <time>2014-05-31T11:46:47.000Z</time>
      </trkpt>
      <trkpt lat="46.45159" lon="5.95985">
        <ele>1062.5999755859</ele>
        <time>2014-05-31T11:46:52.000Z</time>
      </trkpt>
      <trkpt lat="46.45152" lon="5.95973">
        <ele>1063.5999755859</ele>
        <time>2014-05-31T11:46:56.000Z</time>
      </trkpt>
      <trkpt lat="46.45151" lon="5.95954">
        <ele>1064.4000244141</ele>
        <time>2014-05-31T11:47:02.000Z</time>
      </trkpt>
      <trkpt lat="46.45152" lon="5.95946">
        <ele>1064.4000244141</ele>
        <time>2014-05-31T11:47:07.000Z</time>
      </trkpt>
      <trkpt lat="46.45156" lon="5.95937">
        <ele>1064.1999511719</ele>
        <time>2014-05-31T11:47:12.000Z</time>
      </trkpt>
      <trkpt lat="46.45157" lon="5.95934">
        <ele>1064.1999511719</ele>
        <time>2014-05-31T11:47:13.000Z</time>
      </trkpt>
      <trkpt lat="46.4516" lon="5.95923">
        <ele>1064.1999511719</ele>
        <time>2014-05-31T11:47:18.000Z</time>
      </trkpt>
      <trkpt lat="46.4516" lon="5.95919">
        <ele>1064.1999511719</ele>
        <time>2014-05-31T11:47:20.000Z</time>
      </trkpt>
      <trkpt lat="46.45168" lon="5.95915">
        <ele>1063.4000244141</ele>
        <time>2014-05-31T11:47:26.000Z</time>
      </trkpt>
      <trkpt lat="46.45171" lon="5.9591">
        <ele>1063.1999511719</ele>
        <time>2014-05-31T11:47:30.000Z</time>
      </trkpt>
      <trkpt lat="46.45171" lon="5.95904">
        <ele>1063.5999755859</ele>
        <time>2014-05-31T11:47:34.000Z</time>
      </trkpt>
      <trkpt lat="46.4517" lon="5.95899">
        <ele>1064</ele>
        <time>2014-05-31T11:47:39.000Z</time>
      </trkpt>
      <trkpt lat="46.4517" lon="5.95896">
        <ele>1064.1999511719</ele>
        <time>2014-05-31T11:47:43.000Z</time>
      </trkpt>
      <trkpt lat="46.45167" lon="5.95891">
        <ele>1064.8000488281</ele>
        <time>2014-05-31T11:47:48.000Z</time>
      </trkpt>
      <trkpt lat="46.45165" lon="5.95883">
        <ele>1064.8000488281</ele>
        <time>2014-05-31T11:47:52.000Z</time>
      </trkpt>
      <trkpt lat="46.45162" lon="5.95872">
        <ele>1064.8000488281</ele>
        <time>2014-05-31T11:47:56.000Z</time>
      </trkpt>
      <trkpt lat="46.45161" lon="5.95866">
        <ele>1064.8000488281</ele>
        <time>2014-05-31T11:47:58.000Z</time>
      </trkpt>
      <trkpt lat="46.4516" lon="5.95861">
        <ele>1064.8000488281</ele>
        <time>2014-05-31T11:48:04.000Z</time>
      </trkpt>
      <trkpt lat="46.45161" lon="5.95862">
        <ele>1064.8000488281</ele>
        <time>2014-05-31T11:48:09.000Z</time>
      </trkpt>
      <trkpt lat="46.45163" lon="5.9586">
        <ele>1064.5999755859</ele>
        <time>2014-05-31T11:48:11.000Z</time>
      </trkpt>
      <trkpt lat="46.45173" lon="5.9586">
        <ele>1064</ele>
        <time>2014-05-31T11:48:16.000Z</time>
      </trkpt>
      <trkpt lat="46.45187" lon="5.95867">
        <ele>1063</ele>
        <time>2014-05-31T11:48:23.000Z</time>
      </trkpt>
      <trkpt lat="46.45192" lon="5.9587">
        <ele>1062.8000488281</ele>
        <time>2014-05-31T11:48:25.000Z</time>
      </trkpt>
      <trkpt lat="46.45199" lon="5.95874">
        <ele>1062.1999511719</ele>
        <time>2014-05-31T11:48:30.000Z</time>
      </trkpt>
      <trkpt lat="46.45201" lon="5.95875">
        <ele>1062</ele>
        <time>2014-05-31T11:48:32.000Z</time>
      </trkpt>
      <trkpt lat="46.45206" lon="5.95878">
        <ele>1061.8000488281</ele>
        <time>2014-05-31T11:48:37.000Z</time>
      </trkpt>
      <trkpt lat="46.45211" lon="5.95877">
        <ele>1061.4000244141</ele>
        <time>2014-05-31T11:48:43.000Z</time>
      </trkpt>
      <trkpt lat="46.45212" lon="5.95879">
        <ele>1061.4000244141</ele>
        <time>2014-05-31T11:48:48.000Z</time>
      </trkpt>
      <trkpt lat="46.45214" lon="5.95892">
        <ele>1061.1999511719</ele>
        <time>2014-05-31T11:48:54.000Z</time>
      </trkpt>
      <trkpt lat="46.45215" lon="5.95896">
        <ele>1061</ele>
        <time>2014-05-31T11:48:57.000Z</time>
      </trkpt>
      <trkpt lat="46.45219" lon="5.95903">
        <ele>1060.1999511719</ele>
        <time>2014-05-31T11:49:02.000Z</time>
      </trkpt>
      <trkpt lat="46.45219" lon="5.95904">
        <ele>1060.1999511719</ele>
        <time>2014-05-31T11:49:07.000Z</time>
      </trkpt>
      <trkpt lat="46.4522" lon="5.95899">
        <ele>1060.4000244141</ele>
        <time>2014-05-31T11:49:15.000Z</time>
      </trkpt>
      <trkpt lat="46.45222" lon="5.95891">
        <ele>1060.8000488281</ele>
        <time>2014-05-31T11:49:19.000Z</time>
      </trkpt>
      <trkpt lat="46.45228" lon="5.95879">
        <ele>1060.4000244141</ele>
        <time>2014-05-31T11:49:23.000Z</time>
      </trkpt>
      <trkpt lat="46.45235" lon="5.95866">
        <ele>1060.5999755859</ele>
        <time>2014-05-31T11:49:27.000Z</time>
      </trkpt>
      <trkpt lat="46.45237" lon="5.95862">
        <ele>1060.5999755859</ele>
        <time>2014-05-31T11:49:28.000Z</time>
      </trkpt>
      <trkpt lat="46.45246" lon="5.95852">
        <ele>1060.4000244141</ele>
        <time>2014-05-31T11:49:34.000Z</time>
      </trkpt>
      <trkpt lat="46.45252" lon="5.95839">
        <ele>1060.5999755859</ele>
        <time>2014-05-31T11:49:39.000Z</time>
      </trkpt>
      <trkpt lat="46.4526" lon="5.95828">
        <ele>1060.4000244141</ele>
        <time>2014-05-31T11:49:43.000Z</time>
      </trkpt>
      <trkpt lat="46.45264" lon="5.95815">
        <ele>1060.4000244141</ele>
        <time>2014-05-31T11:49:49.000Z</time>
      </trkpt>
      <trkpt lat="46.45264" lon="5.95813">
        <ele>1060.4000244141</ele>
        <time>2014-05-31T11:49:51.000Z</time>
      </trkpt>
      <trkpt lat="46.45262" lon="5.95809">
        <ele>1060.5999755859</ele>
        <time>2014-05-31T11:49:57.000Z</time>
      </trkpt>
      <trkpt lat="46.45264" lon="5.95807">
        <ele>1060.5999755859</ele>
        <time>2014-05-31T11:50:03.000Z</time>
      </trkpt>
      <trkpt lat="46.45264" lon="5.95806">
        <ele>1060.4000244141</ele>
        <time>2014-05-31T11:50:12.000Z</time>
      </trkpt>
      <trkpt lat="46.45263" lon="5.95807">
        <ele>1060.5999755859</ele>
        <time>2014-05-31T11:50:17.000Z</time>
      </trkpt>
      <trkpt lat="46.45262" lon="5.95807">
        <ele>1060.5999755859</ele>
        <time>2014-05-31T11:50:24.000Z</time>
      </trkpt>
      <trkpt lat="46.45258" lon="5.95803">
        <ele>1060.8000488281</ele>
        <time>2014-05-31T11:50:28.000Z</time>
      </trkpt>
      <trkpt lat="46.45256" lon="5.95802">
        <ele>1060.8000488281</ele>
        <time>2014-05-31T11:50:31.000Z</time>
      </trkpt>
      <trkpt lat="46.4525" lon="5.95789">
        <ele>1061</ele>
        <time>2014-05-31T11:50:36.000Z</time>
      </trkpt>
      <trkpt lat="46.45248" lon="5.95786">
        <ele>1061</ele>
        <time>2014-05-31T11:50:37.000Z</time>
      </trkpt>
      <trkpt lat="46.45233" lon="5.95767">
        <ele>1061.4000244141</ele>
        <time>2014-05-31T11:50:42.000Z</time>
      </trkpt>
      <trkpt lat="46.4522" lon="5.9575">
        <ele>1062</ele>
        <time>2014-05-31T11:50:47.000Z</time>
      </trkpt>
      <trkpt lat="46.45211" lon="5.95732">
        <ele>1062.1999511719</ele>
        <time>2014-05-31T11:50:52.000Z</time>
      </trkpt>
      <trkpt lat="46.45196" lon="5.95723">
        <ele>1062.8000488281</ele>
        <time>2014-05-31T11:50:57.000Z</time>
      </trkpt>
      <trkpt lat="46.45187" lon="5.95711">
        <ele>1063.4000244141</ele>
        <time>2014-05-31T11:51:01.000Z</time>
      </trkpt>
      <trkpt lat="46.45179" lon="5.95696">
        <ele>1064.1999511719</ele>
        <time>2014-05-31T11:51:06.000Z</time>
      </trkpt>
      <trkpt lat="46.45172" lon="5.95681">
        <ele>1065</ele>
        <time>2014-05-31T11:51:11.000Z</time>
      </trkpt>
      <trkpt lat="46.45167" lon="5.95665">
        <ele>1065.5999755859</ele>
        <time>2014-05-31T11:51:15.000Z</time>
      </trkpt>
      <trkpt lat="46.45159" lon="5.95651">
        <ele>1066.1999511719</ele>
        <time>2014-05-31T11:51:19.000Z</time>
      </trkpt>
      <trkpt lat="46.45155" lon="5.9566">
        <ele>1066.1999511719</ele>
        <time>2014-05-31T11:51:23.000Z</time>
      </trkpt>
      <trkpt lat="46.4515" lon="5.95664">
        <ele>1066.4000244141</ele>
        <time>2014-05-31T11:51:28.000Z</time>
      </trkpt>
      <trkpt lat="46.45146" lon="5.95677">
        <ele>1066</ele>
        <time>2014-05-31T11:51:50.000Z</time>
      </trkpt>
      <trkpt lat="46.45145" lon="5.95688">
        <ele>1065.8000488281</ele>
        <time>2014-05-31T11:51:55.000Z</time>
      </trkpt>
      <trkpt lat="46.45146" lon="5.95693">
        <ele>1065.5999755859</ele>
        <time>2014-05-31T11:51:59.000Z</time>
      </trkpt>
      <trkpt lat="46.45149" lon="5.95696">
        <ele>1065.5999755859</ele>
        <time>2014-05-31T11:52:07.000Z</time>
      </trkpt>
      <trkpt lat="46.45152" lon="5.95696">
        <ele>1065.5999755859</ele>
        <time>2014-05-31T11:52:10.000Z</time>
      </trkpt>
      <trkpt lat="46.45156" lon="5.95696">
        <ele>1065.4000244141</ele>
        <time>2014-05-31T11:52:12.000Z</time>
      </trkpt>
      <trkpt lat="46.45168" lon="5.95705">
        <ele>1064.5999755859</ele>
        <time>2014-05-31T11:52:18.000Z</time>
      </trkpt>
      <trkpt lat="46.45178" lon="5.95708">
        <ele>1064</ele>
        <time>2014-05-31T11:52:22.000Z</time>
      </trkpt>
      <trkpt lat="46.45184" lon="5.95713">
        <ele>1063.5999755859</ele>
        <time>2014-05-31T11:52:25.000Z</time>
      </trkpt>
      <trkpt lat="46.45186" lon="5.95719">
        <ele>1063.4000244141</ele>
        <time>2014-05-31T11:52:29.000Z</time>
      </trkpt>
      <trkpt lat="46.45183" lon="5.95726">
        <ele>1063.4000244141</ele>
        <time>2014-05-31T11:52:41.000Z</time>
      </trkpt>
      <trkpt lat="46.4518" lon="5.95726">
        <ele>1063.5999755859</ele>
        <time>2014-05-31T11:52:52.000Z</time>
      </trkpt>
      <trkpt lat="46.4518" lon="5.95726">
        <ele>1063.5999755859</ele>
        <time>2014-05-31T11:53:02.000Z</time>
      </trkpt>
      <trkpt lat="46.45182" lon="5.95726">
        <ele>1063.4000244141</ele>
        <time>2014-05-31T11:53:07.000Z</time>
      </trkpt>
      <trkpt lat="46.45179" lon="5.95732">
        <ele>1063.5999755859</ele>
        <time>2014-05-31T11:53:10.000Z</time>
      </trkpt>
      <trkpt lat="46.45177" lon="5.95751">
        <ele>1064</ele>
        <time>2014-05-31T11:53:16.000Z</time>
      </trkpt>
      <trkpt lat="46.45177" lon="5.95755">
        <ele>1064</ele>
        <time>2014-05-31T11:53:17.000Z</time>
      </trkpt>
      <trkpt lat="46.45173" lon="5.9577">
        <ele>1064.1999511719</ele>
        <time>2014-05-31T11:53:22.000Z</time>
      </trkpt>
      <trkpt lat="46.4517" lon="5.95776">
        <ele>1064.1999511719</ele>
        <time>2014-05-31T11:53:24.000Z</time>
      </trkpt>
      <trkpt lat="46.45155" lon="5.95786">
        <ele>1064.8000488281</ele>
        <time>2014-05-31T11:53:29.000Z</time>
      </trkpt>
      <trkpt lat="46.45146" lon="5.95796">
        <ele>1065</ele>
        <time>2014-05-31T11:53:34.000Z</time>
      </trkpt>
      <trkpt lat="46.45145" lon="5.958">
        <ele>1065</ele>
        <time>2014-05-31T11:53:43.000Z</time>
      </trkpt>
      <trkpt lat="46.45146" lon="5.95805">
        <ele>1065</ele>
        <time>2014-05-31T11:53:56.000Z</time>
      </trkpt>
      <trkpt lat="46.45144" lon="5.95821">
        <ele>1065.4000244141</ele>
        <time>2014-05-31T11:54:02.000Z</time>
      </trkpt>
      <trkpt lat="46.45144" lon="5.95824">
        <ele>1065.4000244141</ele>
        <time>2014-05-31T11:54:03.000Z</time>
      </trkpt>
      <trkpt lat="46.45146" lon="5.95829">
        <ele>1065.4000244141</ele>
        <time>2014-05-31T11:54:07.000Z</time>
      </trkpt>
      <trkpt lat="46.45141" lon="5.95837">
        <ele>1065.5999755859</ele>
        <time>2014-05-31T11:54:13.000Z</time>
      </trkpt>
      <trkpt lat="46.45139" lon="5.95838">
        <ele>1065.8000488281</ele>
        <time>2014-05-31T11:54:15.000Z</time>
      </trkpt>
      <trkpt lat="46.45137" lon="5.95845">
        <ele>1065.8000488281</ele>
        <time>2014-05-31T11:54:20.000Z</time>
      </trkpt>
      <trkpt lat="46.4514" lon="5.9585">
        <ele>1065.8000488281</ele>
        <time>2014-05-31T11:54:26.000Z</time>
      </trkpt>
      <trkpt lat="46.45141" lon="5.95847">
        <ele>1065.8000488281</ele>
        <time>2014-05-31T11:54:29.000Z</time>
      </trkpt>
      <trkpt lat="46.45147" lon="5.95846">
        <ele>1065.5999755859</ele>
        <time>2014-05-31T11:54:34.000Z</time>
      </trkpt>
      <trkpt lat="46.45154" lon="5.95853">
        <ele>1065.1999511719</ele>
        <time>2014-05-31T11:54:39.000Z</time>
      </trkpt>
      <trkpt lat="46.45157" lon="5.95854">
        <ele>1065</ele>
        <time>2014-05-31T11:54:44.000Z</time>
      </trkpt>
      <trkpt lat="46.45158" lon="5.95854">
        <ele>1065</ele>
        <time>2014-05-31T11:54:47.000Z</time>
      </trkpt>
      <trkpt lat="46.45159" lon="5.9585">
        <ele>1064.8000488281</ele>
        <time>2014-05-31T11:55:01.000Z</time>
      </trkpt>
      <trkpt lat="46.45154" lon="5.95857">
        <ele>1065.1999511719</ele>
        <time>2014-05-31T11:55:19.000Z</time>
      </trkpt>
      <trkpt lat="46.45151" lon="5.95855">
        <ele>1065.4000244141</ele>
        <time>2014-05-31T11:55:22.000Z</time>
      </trkpt>
      <trkpt lat="46.45144" lon="5.95848">
        <ele>1065.5999755859</ele>
        <time>2014-05-31T11:55:26.000Z</time>
      </trkpt>
      <trkpt lat="46.45129" lon="5.95851">
        <ele>1066.1999511719</ele>
        <time>2014-05-31T11:55:32.000Z</time>
      </trkpt>
      <trkpt lat="46.45128" lon="5.95852">
        <ele>1066.4000244141</ele>
        <time>2014-05-31T11:55:33.000Z</time>
      </trkpt>
      <trkpt lat="46.45123" lon="5.95844">
        <ele>1066.4000244141</ele>
        <time>2014-05-31T11:55:38.000Z</time>
      </trkpt>
      <trkpt lat="46.45122" lon="5.95844">
        <ele>1066.4000244141</ele>
        <time>2014-05-31T11:55:39.000Z</time>
      </trkpt>
      <trkpt lat="46.45115" lon="5.95842">
        <ele>1066.5999755859</ele>
        <time>2014-05-31T11:55:44.000Z</time>
      </trkpt>
      <trkpt lat="46.4511" lon="5.95842">
        <ele>1066.8000488281</ele>
        <time>2014-05-31T11:55:48.000Z</time>
      </trkpt>
      <trkpt lat="46.45107" lon="5.9584">
        <ele>1066.8000488281</ele>
        <time>2014-05-31T11:55:53.000Z</time>
      </trkpt>
      <trkpt lat="46.45103" lon="5.95828">
        <ele>1067</ele>
        <time>2014-05-31T11:55:58.000Z</time>
      </trkpt>
      <trkpt lat="46.45102" lon="5.95827">
        <ele>1067</ele>
        <time>2014-05-31T11:55:59.000Z</time>
      </trkpt>
      <trkpt lat="46.45093" lon="5.95824">
        <ele>1067.1999511719</ele>
        <time>2014-05-31T11:56:04.000Z</time>
      </trkpt>
      <trkpt lat="46.45087" lon="5.95829">
        <ele>1067.5999755859</ele>
        <time>2014-05-31T11:56:08.000Z</time>
      </trkpt>
      <trkpt lat="46.45081" lon="5.95831">
        <ele>1068</ele>
        <time>2014-05-31T11:56:12.000Z</time>
      </trkpt>
      <trkpt lat="46.45081" lon="5.95839">
        <ele>1068.5999755859</ele>
        <time>2014-05-31T11:56:17.000Z</time>
      </trkpt>
      <trkpt lat="46.45083" lon="5.95849">
        <ele>1069</ele>
        <time>2014-05-31T11:56:23.000Z</time>
      </trkpt>
      <trkpt lat="46.45083" lon="5.95851">
        <ele>1069.1999511719</ele>
        <time>2014-05-31T11:56:25.000Z</time>
      </trkpt>
      <trkpt lat="46.4508" lon="5.95856">
        <ele>1069.8000488281</ele>
        <time>2014-05-31T11:56:32.000Z</time>
      </trkpt>
      <trkpt lat="46.4508" lon="5.95859">
        <ele>1070</ele>
        <time>2014-05-31T11:56:34.000Z</time>
      </trkpt>
      <trkpt lat="46.45076" lon="5.95868">
        <ele>1070.8000488281</ele>
        <time>2014-05-31T11:56:39.000Z</time>
      </trkpt>
      <trkpt lat="46.45063" lon="5.9587">
        <ele>1071.8000488281</ele>
        <time>2014-05-31T11:56:44.000Z</time>
      </trkpt>
      <trkpt lat="46.45053" lon="5.95871">
        <ele>1072.1999511719</ele>
        <time>2014-05-31T11:56:49.000Z</time>
      </trkpt>
      <trkpt lat="46.45045" lon="5.95874">
        <ele>1072.8000488281</ele>
        <time>2014-05-31T11:56:54.000Z</time>
      </trkpt>
      <trkpt lat="46.4504" lon="5.95874">
        <ele>1072.8000488281</ele>
        <time>2014-05-31T11:56:56.000Z</time>
      </trkpt>
      <trkpt lat="46.45031" lon="5.95872">
        <ele>1073.1999511719</ele>
        <time>2014-05-31T11:56:59.000Z</time>
      </trkpt>
      <trkpt lat="46.4502" lon="5.95879">
        <ele>1074</ele>
        <time>2014-05-31T11:57:05.000Z</time>
      </trkpt>
      <trkpt lat="46.45013" lon="5.95888">
        <ele>1074.8000488281</ele>
        <time>2014-05-31T11:57:10.000Z</time>
      </trkpt>
      <trkpt lat="46.45006" lon="5.95893">
        <ele>1075.1999511719</ele>
        <time>2014-05-31T11:57:14.000Z</time>
      </trkpt>
      <trkpt lat="46.44999" lon="5.95903">
        <ele>1075.5999755859</ele>
        <time>2014-05-31T11:57:18.000Z</time>
      </trkpt>
      <trkpt lat="46.44997" lon="5.95906">
        <ele>1075.8000488281</ele>
        <time>2014-05-31T11:57:20.000Z</time>
      </trkpt>
      <trkpt lat="46.44995" lon="5.95909">
        <ele>1076.1999511719</ele>
        <time>2014-05-31T11:57:23.000Z</time>
      </trkpt>
      <trkpt lat="46.44992" lon="5.95919">
        <ele>1077.1999511719</ele>
        <time>2014-05-31T11:57:29.000Z</time>
      </trkpt>
      <trkpt lat="46.44991" lon="5.95922">
        <ele>1077.5999755859</ele>
        <time>2014-05-31T11:57:31.000Z</time>
      </trkpt>
      <trkpt lat="46.44982" lon="5.95927">
        <ele>1078.5999755859</ele>
        <time>2014-05-31T11:57:38.000Z</time>
      </trkpt>
      <trkpt lat="46.44982" lon="5.95928">
        <ele>1078.8000488281</ele>
        <time>2014-05-31T11:57:39.000Z</time>
      </trkpt>
      <trkpt lat="46.44977" lon="5.95934">
        <ele>1079.4000244141</ele>
        <time>2014-05-31T11:57:44.000Z</time>
      </trkpt>
      <trkpt lat="46.4497" lon="5.95935">
        <ele>1079.8000488281</ele>
        <time>2014-05-31T11:57:47.000Z</time>
      </trkpt>
      <trkpt lat="46.4496" lon="5.95927">
        <ele>1079.5999755859</ele>
        <time>2014-05-31T11:57:51.000Z</time>
      </trkpt>
      <trkpt lat="46.44958" lon="5.95925">
        <ele>1079.5999755859</ele>
        <time>2014-05-31T11:57:52.000Z</time>
      </trkpt>
      <trkpt lat="46.44944" lon="5.95914">
        <ele>1079.4000244141</ele>
        <time>2014-05-31T11:57:57.000Z</time>
      </trkpt>
      <trkpt lat="46.44927" lon="5.95902">
        <ele>1079.4000244141</ele>
        <time>2014-05-31T11:58:03.000Z</time>
      </trkpt>
      <trkpt lat="46.44913" lon="5.95897">
        <ele>1079.8000488281</ele>
        <time>2014-05-31T11:58:07.000Z</time>
      </trkpt>
      <trkpt lat="46.44899" lon="5.95891">
        <ele>1080</ele>
        <time>2014-05-31T11:58:11.000Z</time>
      </trkpt>
      <trkpt lat="46.44887" lon="5.95886">
        <ele>1082</ele>
        <time>2014-05-31T11:58:15.000Z</time>
      </trkpt>
      <trkpt lat="46.44877" lon="5.95874">
        <ele>1083.4000244141</ele>
        <time>2014-05-31T11:58:19.000Z</time>
      </trkpt>
      <trkpt lat="46.44868" lon="5.9586">
        <ele>1084.5999755859</ele>
        <time>2014-05-31T11:58:24.000Z</time>
      </trkpt>
      <trkpt lat="46.44865" lon="5.95854">
        <ele>1084.8000488281</ele>
        <time>2014-05-31T11:58:29.000Z</time>
      </trkpt>
      <trkpt lat="46.44867" lon="5.95842">
        <ele>1083.8000488281</ele>
        <time>2014-05-31T11:58:34.000Z</time>
      </trkpt>
      <trkpt lat="46.44867" lon="5.95829">
        <ele>1083.1999511719</ele>
        <time>2014-05-31T11:58:39.000Z</time>
      </trkpt>
      <trkpt lat="46.44868" lon="5.95825">
        <ele>1082.8000488281</ele>
        <time>2014-05-31T11:58:42.000Z</time>
      </trkpt>
      <trkpt lat="46.44867" lon="5.95822">
        <ele>1082.8000488281</ele>
        <time>2014-05-31T11:58:44.000Z</time>
      </trkpt>
      <trkpt lat="46.44865" lon="5.95819">
        <ele>1083.1999511719</ele>
        <time>2014-05-31T11:58:47.000Z</time>
      </trkpt>
      <trkpt lat="46.4486" lon="5.95807">
        <ele>1083.4000244141</ele>
        <time>2014-05-31T11:58:54.000Z</time>
      </trkpt>
      <trkpt lat="46.44858" lon="5.95802">
        <ele>1083.5999755859</ele>
        <time>2014-05-31T11:58:56.000Z</time>
      </trkpt>
      <trkpt lat="46.44857" lon="5.95801">
        <ele>1084</ele>
        <time>2014-05-31T11:58:58.000Z</time>
      </trkpt>
      <trkpt lat="46.44854" lon="5.95803">
        <ele>1084.5999755859</ele>
        <time>2014-05-31T11:59:03.000Z</time>
      </trkpt>
      <trkpt lat="46.44853" lon="5.95806">
        <ele>1084.8000488281</ele>
        <time>2014-05-31T11:59:10.000Z</time>
      </trkpt>
      <trkpt lat="46.44851" lon="5.95811">
        <ele>1085.4000244141</ele>
        <time>2014-05-31T11:59:14.000Z</time>
      </trkpt>
      <trkpt lat="46.44844" lon="5.95816">
        <ele>1087</ele>
        <time>2014-05-31T11:59:20.000Z</time>
      </trkpt>
      <trkpt lat="46.44841" lon="5.95828">
        <ele>1088</ele>
        <time>2014-05-31T11:59:25.000Z</time>
      </trkpt>
      <trkpt lat="46.44839" lon="5.95831">
        <ele>1088.5999755859</ele>
        <time>2014-05-31T11:59:27.000Z</time>
      </trkpt>
      <trkpt lat="46.44838" lon="5.95832">
        <ele>1088.8000488281</ele>
        <time>2014-05-31T11:59:29.000Z</time>
      </trkpt>
      <trkpt lat="46.44834" lon="5.95833">
        <ele>1089.8000488281</ele>
        <time>2014-05-31T11:59:33.000Z</time>
      </trkpt>
      <trkpt lat="46.44831" lon="5.95823">
        <ele>1089.8000488281</ele>
        <time>2014-05-31T11:59:38.000Z</time>
      </trkpt>
      <trkpt lat="46.44831" lon="5.95815">
        <ele>1089.4000244141</ele>
        <time>2014-05-31T11:59:42.000Z</time>
      </trkpt>
      <trkpt lat="46.4483" lon="5.95802">
        <ele>1089.1999511719</ele>
        <time>2014-05-31T11:59:52.000Z</time>
      </trkpt>
      <trkpt lat="46.44829" lon="5.95797">
        <ele>1089</ele>
        <time>2014-05-31T11:59:54.000Z</time>
      </trkpt>
      <trkpt lat="46.44823" lon="5.95782">
        <ele>1089.5999755859</ele>
        <time>2014-05-31T11:59:59.000Z</time>
      </trkpt>
      <trkpt lat="46.44819" lon="5.95762">
        <ele>1089.8000488281</ele>
        <time>2014-05-31T12:00:03.000Z</time>
      </trkpt>
      <trkpt lat="46.44817" lon="5.95741">
        <ele>1089.4000244141</ele>
        <time>2014-05-31T12:00:08.000Z</time>
      </trkpt>
      <trkpt lat="46.44816" lon="5.95726">
        <ele>1089</ele>
        <time>2014-05-31T12:00:11.000Z</time>
      </trkpt>
      <trkpt lat="46.44813" lon="5.95715">
        <ele>1088.5999755859</ele>
        <time>2014-05-31T12:00:16.000Z</time>
      </trkpt>
      <trkpt lat="46.4481" lon="5.95709">
        <ele>1088.8000488281</ele>
        <time>2014-05-31T12:00:20.000Z</time>
      </trkpt>
      <trkpt lat="46.44809" lon="5.95706">
        <ele>1088.8000488281</ele>
        <time>2014-05-31T12:00:21.000Z</time>
      </trkpt>
      <trkpt lat="46.44809" lon="5.957">
        <ele>1088.4000244141</ele>
        <time>2014-05-31T12:00:26.000Z</time>
      </trkpt>
      <trkpt lat="46.44808" lon="5.957">
        <ele>1088.4000244141</ele>
        <time>2014-05-31T12:00:27.000Z</time>
      </trkpt>
      <trkpt lat="46.44805" lon="5.9569">
        <ele>1088</ele>
        <time>2014-05-31T12:00:32.000Z</time>
      </trkpt>
      <trkpt lat="46.44805" lon="5.95676">
        <ele>1087.4000244141</ele>
        <time>2014-05-31T12:00:37.000Z</time>
      </trkpt>
      <trkpt lat="46.44801" lon="5.95656">
        <ele>1086.4000244141</ele>
        <time>2014-05-31T12:00:42.000Z</time>
      </trkpt>
      <trkpt lat="46.44805" lon="5.95642">
        <ele>1085.1999511719</ele>
        <time>2014-05-31T12:00:47.000Z</time>
      </trkpt>
      <trkpt lat="46.44808" lon="5.95634">
        <ele>1084.1999511719</ele>
        <time>2014-05-31T12:00:51.000Z</time>
      </trkpt>
      <trkpt lat="46.44808" lon="5.95629">
        <ele>1083.8000488281</ele>
        <time>2014-05-31T12:00:53.000Z</time>
      </trkpt>
      <trkpt lat="46.44807" lon="5.95617">
        <ele>1082.5999755859</ele>
        <time>2014-05-31T12:00:58.000Z</time>
      </trkpt>
      <trkpt lat="46.44805" lon="5.95596">
        <ele>1080.5999755859</ele>
        <time>2014-05-31T12:01:03.000Z</time>
      </trkpt>
      <trkpt lat="46.44802" lon="5.95581">
        <ele>1079.4000244141</ele>
        <time>2014-05-31T12:01:08.000Z</time>
      </trkpt>
      <trkpt lat="46.44801" lon="5.95577">
        <ele>1079</ele>
        <time>2014-05-31T12:01:10.000Z</time>
      </trkpt>
      <trkpt lat="46.44804" lon="5.95568">
        <ele>1077.5999755859</ele>
        <time>2014-05-31T12:01:14.000Z</time>
      </trkpt>
      <trkpt lat="46.44805" lon="5.95561">
        <ele>1076.8000488281</ele>
        <time>2014-05-31T12:01:17.000Z</time>
      </trkpt>
      <trkpt lat="46.4481" lon="5.95551">
        <ele>1075</ele>
        <time>2014-05-31T12:01:22.000Z</time>
      </trkpt>
      <trkpt lat="46.4481" lon="5.95549">
        <ele>1074.5999755859</ele>
        <time>2014-05-31T12:01:23.000Z</time>
      </trkpt>
      <trkpt lat="46.44812" lon="5.95544">
        <ele>1073.8000488281</ele>
        <time>2014-05-31T12:01:26.000Z</time>
      </trkpt>
      <trkpt lat="46.44816" lon="5.95553">
        <ele>1074.4000244141</ele>
        <time>2014-05-31T12:01:31.000Z</time>
      </trkpt>
      <trkpt lat="46.44823" lon="5.95561">
        <ele>1074.1999511719</ele>
        <time>2014-05-31T12:01:36.000Z</time>
      </trkpt>
      <trkpt lat="46.44839" lon="5.95566">
        <ele>1072.1999511719</ele>
        <time>2014-05-31T12:01:42.000Z</time>
      </trkpt>
      <trkpt lat="46.44849" lon="5.95571">
        <ele>1071.1999511719</ele>
        <time>2014-05-31T12:01:46.000Z</time>
      </trkpt>
      <trkpt lat="46.44851" lon="5.95572">
        <ele>1071</ele>
        <time>2014-05-31T12:01:47.000Z</time>
      </trkpt>
      <trkpt lat="46.44869" lon="5.95579">
        <ele>1069</ele>
        <time>2014-05-31T12:01:53.000Z</time>
      </trkpt>
      <trkpt lat="46.44871" lon="5.9558">
        <ele>1068.8000488281</ele>
        <time>2014-05-31T12:01:54.000Z</time>
      </trkpt>
      <trkpt lat="46.44881" lon="5.95584">
        <ele>1067.5999755859</ele>
        <time>2014-05-31T12:01:59.000Z</time>
      </trkpt>
      <trkpt lat="46.44887" lon="5.95575">
        <ele>1066.4000244141</ele>
        <time>2014-05-31T12:02:03.000Z</time>
      </trkpt>
      <trkpt lat="46.44891" lon="5.95569">
        <ele>1065.5999755859</ele>
        <time>2014-05-31T12:02:05.000Z</time>
      </trkpt>
      <trkpt lat="46.44896" lon="5.95558">
        <ele>1064.4000244141</ele>
        <time>2014-05-31T12:02:09.000Z</time>
      </trkpt>
      <trkpt lat="46.44897" lon="5.95551">
        <ele>1063.8000488281</ele>
        <time>2014-05-31T12:02:11.000Z</time>
      </trkpt>
      <trkpt lat="46.44906" lon="5.95553">
        <ele>1063.5999755859</ele>
        <time>2014-05-31T12:02:15.000Z</time>
      </trkpt>
      <trkpt lat="46.44913" lon="5.95558">
        <ele>1063.5999755859</ele>
        <time>2014-05-31T12:02:19.000Z</time>
      </trkpt>
      <trkpt lat="46.44926" lon="5.95564">
        <ele>1063.4000244141</ele>
        <time>2014-05-31T12:02:24.000Z</time>
      </trkpt>
      <trkpt lat="46.44937" lon="5.95567">
        <ele>1063.1999511719</ele>
        <time>2014-05-31T12:02:27.000Z</time>
      </trkpt>
      <trkpt lat="46.4494" lon="5.95574">
        <ele>1063.1999511719</ele>
        <time>2014-05-31T12:02:33.000Z</time>
      </trkpt>
      <trkpt lat="46.4494" lon="5.95583">
        <ele>1063.4000244141</ele>
        <time>2014-05-31T12:02:37.000Z</time>
      </trkpt>
      <trkpt lat="46.44938" lon="5.95599">
        <ele>1063.5999755859</ele>
        <time>2014-05-31T12:02:42.000Z</time>
      </trkpt>
      <trkpt lat="46.44939" lon="5.95605">
        <ele>1063.8000488281</ele>
        <time>2014-05-31T12:02:44.000Z</time>
      </trkpt>
      <trkpt lat="46.44942" lon="5.95618">
        <ele>1064.4000244141</ele>
        <time>2014-05-31T12:02:47.000Z</time>
      </trkpt>
      <trkpt lat="46.44938" lon="5.95636">
        <ele>1065.4000244141</ele>
        <time>2014-05-31T12:02:52.000Z</time>
      </trkpt>
      <trkpt lat="46.44931" lon="5.95645">
        <ele>1066.1999511719</ele>
        <time>2014-05-31T12:02:56.000Z</time>
      </trkpt>
      <trkpt lat="46.44927" lon="5.9565">
        <ele>1066.5999755859</ele>
        <time>2014-05-31T12:02:59.000Z</time>
      </trkpt>
      <trkpt lat="46.44924" lon="5.95672">
        <ele>1067.4000244141</ele>
        <time>2014-05-31T12:03:05.000Z</time>
      </trkpt>
      <trkpt lat="46.44924" lon="5.95687">
        <ele>1068</ele>
        <time>2014-05-31T12:03:10.000Z</time>
      </trkpt>
      <trkpt lat="46.44928" lon="5.95698">
        <ele>1068.4000244141</ele>
        <time>2014-05-31T12:03:14.000Z</time>
      </trkpt>
      <trkpt lat="46.44929" lon="5.95713">
        <ele>1069</ele>
        <time>2014-05-31T12:03:19.000Z</time>
      </trkpt>
      <trkpt lat="46.44925" lon="5.95721">
        <ele>1069.5999755859</ele>
        <time>2014-05-31T12:03:22.000Z</time>
      </trkpt>
      <trkpt lat="46.44922" lon="5.95729">
        <ele>1070.4000244141</ele>
        <time>2014-05-31T12:03:24.000Z</time>
      </trkpt>
      <trkpt lat="46.44917" lon="5.95738">
        <ele>1071.4000244141</ele>
        <time>2014-05-31T12:03:28.000Z</time>
      </trkpt>
      <trkpt lat="46.44908" lon="5.95759">
        <ele>1073.1999511719</ele>
        <time>2014-05-31T12:03:34.000Z</time>
      </trkpt>
      <trkpt lat="46.44906" lon="5.95765">
        <ele>1073.5999755859</ele>
        <time>2014-05-31T12:03:36.000Z</time>
      </trkpt>
      <trkpt lat="46.44904" lon="5.95775">
        <ele>1074.1999511719</ele>
        <time>2014-05-31T12:03:39.000Z</time>
      </trkpt>
      <trkpt lat="46.44907" lon="5.95779">
        <ele>1074.1999511719</ele>
        <time>2014-05-31T12:03:41.000Z</time>
      </trkpt>
      <trkpt lat="46.44917" lon="5.95783">
        <ele>1073.8000488281</ele>
        <time>2014-05-31T12:03:47.000Z</time>
      </trkpt>
      <trkpt lat="46.44917" lon="5.95785">
        <ele>1073.8000488281</ele>
        <time>2014-05-31T12:03:48.000Z</time>
      </trkpt>
      <trkpt lat="46.44917" lon="5.95789">
        <ele>1074</ele>
        <time>2014-05-31T12:03:54.000Z</time>
      </trkpt>
      <trkpt lat="46.44919" lon="5.95789">
        <ele>1074</ele>
        <time>2014-05-31T12:03:56.000Z</time>
      </trkpt>
      <trkpt lat="46.44925" lon="5.95793">
        <ele>1073.8000488281</ele>
        <time>2014-05-31T12:04:01.000Z</time>
      </trkpt>
      <trkpt lat="46.44934" lon="5.95801">
        <ele>1073.5999755859</ele>
        <time>2014-05-31T12:04:06.000Z</time>
      </trkpt>
      <trkpt lat="46.44941" lon="5.95805">
        <ele>1073.4000244141</ele>
        <time>2014-05-31T12:04:11.000Z</time>
      </trkpt>
      <trkpt lat="46.44942" lon="5.95806">
        <ele>1073.4000244141</ele>
        <time>2014-05-31T12:04:12.000Z</time>
      </trkpt>
      <trkpt lat="46.44943" lon="5.95807">
        <ele>1073.4000244141</ele>
        <time>2014-05-31T12:04:14.000Z</time>
      </trkpt>
      <trkpt lat="46.44947" lon="5.95807">
        <ele>1073</ele>
        <time>2014-05-31T12:04:19.000Z</time>
      </trkpt>
      <trkpt lat="46.44951" lon="5.95804">
        <ele>1072.8000488281</ele>
        <time>2014-05-31T12:04:22.000Z</time>
      </trkpt>
      <trkpt lat="46.44959" lon="5.95793">
        <ele>1071.8000488281</ele>
        <time>2014-05-31T12:04:27.000Z</time>
      </trkpt>
      <trkpt lat="46.44969" lon="5.95786">
        <ele>1070.5999755859</ele>
        <time>2014-05-31T12:04:32.000Z</time>
      </trkpt>
      <trkpt lat="46.44972" lon="5.95784">
        <ele>1070.1999511719</ele>
        <time>2014-05-31T12:04:34.000Z</time>
      </trkpt>
      <trkpt lat="46.44976" lon="5.95783">
        <ele>1069.8000488281</ele>
        <time>2014-05-31T12:04:36.000Z</time>
      </trkpt>
      <trkpt lat="46.44987" lon="5.95771">
        <ele>1068.1999511719</ele>
        <time>2014-05-31T12:04:41.000Z</time>
      </trkpt>
      <trkpt lat="46.45002" lon="5.95752">
        <ele>1066.1999511719</ele>
        <time>2014-05-31T12:04:46.000Z</time>
      </trkpt>
      <trkpt lat="46.4501" lon="5.95745">
        <ele>1065.5999755859</ele>
        <time>2014-05-31T12:04:49.000Z</time>
      </trkpt>
      <trkpt lat="46.45017" lon="5.95744">
        <ele>1065.5999755859</ele>
        <time>2014-05-31T12:04:53.000Z</time>
      </trkpt>
      <trkpt lat="46.4502" lon="5.95746">
        <ele>1065.5999755859</ele>
        <time>2014-05-31T12:04:55.000Z</time>
      </trkpt>
      <trkpt lat="46.45028" lon="5.95744">
        <ele>1065.4000244141</ele>
        <time>2014-05-31T12:05:00.000Z</time>
      </trkpt>
      <trkpt lat="46.45036" lon="5.95748">
        <ele>1065.4000244141</ele>
        <time>2014-05-31T12:05:04.000Z</time>
      </trkpt>
      <trkpt lat="46.45037" lon="5.95746">
        <ele>1065.4000244141</ele>
        <time>2014-05-31T12:05:05.000Z</time>
      </trkpt>
      <trkpt lat="46.45038" lon="5.95748">
        <ele>1065.4000244141</ele>
        <time>2014-05-31T12:05:19.000Z</time>
      </trkpt>
      <trkpt lat="46.45042" lon="5.95749">
        <ele>1065.4000244141</ele>
        <time>2014-05-31T12:05:23.000Z</time>
      </trkpt>
      <trkpt lat="46.45044" lon="5.95764">
        <ele>1066.1999511719</ele>
        <time>2014-05-31T12:05:28.000Z</time>
      </trkpt>
      <trkpt lat="46.45046" lon="5.95774">
        <ele>1066.5999755859</ele>
        <time>2014-05-31T12:05:32.000Z</time>
      </trkpt>
      <trkpt lat="46.45048" lon="5.9578">
        <ele>1066.8000488281</ele>
        <time>2014-05-31T12:05:35.000Z</time>
      </trkpt>
      <trkpt lat="46.45051" lon="5.95792">
        <ele>1067.4000244141</ele>
        <time>2014-05-31T12:05:40.000Z</time>
      </trkpt>
      <trkpt lat="46.45053" lon="5.95799">
        <ele>1067.8000488281</ele>
        <time>2014-05-31T12:05:43.000Z</time>
      </trkpt>
      <trkpt lat="46.4505" lon="5.95812">
        <ele>1068.8000488281</ele>
        <time>2014-05-31T12:05:48.000Z</time>
      </trkpt>
      <trkpt lat="46.45048" lon="5.95821">
        <ele>1069.4000244141</ele>
        <time>2014-05-31T12:05:51.000Z</time>
      </trkpt>
      <trkpt lat="46.45049" lon="5.95834">
        <ele>1070.1999511719</ele>
        <time>2014-05-31T12:05:58.000Z</time>
      </trkpt>
      <trkpt lat="46.45047" lon="5.95838">
        <ele>1070.4000244141</ele>
        <time>2014-05-31T12:06:03.000Z</time>
      </trkpt>
      <trkpt lat="46.45046" lon="5.95848">
        <ele>1071.1999511719</ele>
        <time>2014-05-31T12:06:10.000Z</time>
      </trkpt>
      <trkpt lat="46.45048" lon="5.95859">
        <ele>1071.8000488281</ele>
        <time>2014-05-31T12:06:29.000Z</time>
      </trkpt>
      <trkpt lat="46.45048" lon="5.95859">
        <ele>1071.8000488281</ele>
        <time>2014-05-31T12:06:30.000Z</time>
      </trkpt>
      <trkpt lat="46.45042" lon="5.9586">
        <ele>1072</ele>
        <time>2014-05-31T12:06:36.000Z</time>
      </trkpt>
      <trkpt lat="46.45041" lon="5.9586">
        <ele>1072</ele>
        <time>2014-05-31T12:06:37.000Z</time>
      </trkpt>
      <trkpt lat="46.45037" lon="5.95858">
        <ele>1072</ele>
        <time>2014-05-31T12:06:47.000Z</time>
      </trkpt>
      <trkpt lat="46.45042" lon="5.9586">
        <ele>1072</ele>
        <time>2014-05-31T12:06:58.000Z</time>
      </trkpt>
      <trkpt lat="46.45041" lon="5.95861">
        <ele>1072.1999511719</ele>
        <time>2014-05-31T12:07:13.000Z</time>
      </trkpt>
      <trkpt lat="46.45033" lon="5.95866">
        <ele>1072.5999755859</ele>
        <time>2014-05-31T12:07:18.000Z</time>
      </trkpt>
      <trkpt lat="46.45026" lon="5.95871">
        <ele>1073.1999511719</ele>
        <time>2014-05-31T12:07:22.000Z</time>
      </trkpt>
      <trkpt lat="46.4502" lon="5.95874">
        <ele>1073.5999755859</ele>
        <time>2014-05-31T12:07:26.000Z</time>
      </trkpt>
      <trkpt lat="46.45011" lon="5.95876">
        <ele>1074</ele>
        <time>2014-05-31T12:07:32.000Z</time>
      </trkpt>
      <trkpt lat="46.45008" lon="5.95879">
        <ele>1074.4000244141</ele>
        <time>2014-05-31T12:07:36.000Z</time>
      </trkpt>
      <trkpt lat="46.45005" lon="5.95882">
        <ele>1074.5999755859</ele>
        <time>2014-05-31T12:07:38.000Z</time>
      </trkpt>
      <trkpt lat="46.45" lon="5.95887">
        <ele>1075.1999511719</ele>
        <time>2014-05-31T12:07:42.000Z</time>
      </trkpt>
      <trkpt lat="46.44997" lon="5.95888">
        <ele>1075.1999511719</ele>
        <time>2014-05-31T12:07:44.000Z</time>
      </trkpt>
      <trkpt lat="46.44993" lon="5.95895">
        <ele>1075.8000488281</ele>
        <time>2014-05-31T12:07:49.000Z</time>
      </trkpt>
      <trkpt lat="46.44993" lon="5.95901">
        <ele>1075.8000488281</ele>
        <time>2014-05-31T12:07:58.000Z</time>
      </trkpt>
      <trkpt lat="46.44992" lon="5.95902">
        <ele>1076</ele>
        <time>2014-05-31T12:08:00.000Z</time>
      </trkpt>
      <trkpt lat="46.44988" lon="5.95907">
        <ele>1076.5999755859</ele>
        <time>2014-05-31T12:08:04.000Z</time>
      </trkpt>
      <trkpt lat="46.44977" lon="5.95918">
        <ele>1078.1999511719</ele>
        <time>2014-05-31T12:08:10.000Z</time>
      </trkpt>
      <trkpt lat="46.44974" lon="5.95922">
        <ele>1078.5999755859</ele>
        <time>2014-05-31T12:08:12.000Z</time>
      </trkpt>
      <trkpt lat="46.44972" lon="5.95927">
        <ele>1079</ele>
        <time>2014-05-31T12:08:14.000Z</time>
      </trkpt>
      <trkpt lat="46.44969" lon="5.95937">
        <ele>1080</ele>
        <time>2014-05-31T12:08:18.000Z</time>
      </trkpt>
      <trkpt lat="46.4497" lon="5.95944">
        <ele>1080.4000244141</ele>
        <time>2014-05-31T12:08:27.000Z</time>
      </trkpt>
      <trkpt lat="46.44971" lon="5.95945">
        <ele>1080.4000244141</ele>
        <time>2014-05-31T12:08:29.000Z</time>
      </trkpt>
      <trkpt lat="46.4498" lon="5.9595">
        <ele>1080.4000244141</ele>
        <time>2014-05-31T12:08:35.000Z</time>
      </trkpt>
      <trkpt lat="46.44982" lon="5.95951">
        <ele>1080.4000244141</ele>
        <time>2014-05-31T12:08:38.000Z</time>
      </trkpt>
      <trkpt lat="46.44988" lon="5.9595">
        <ele>1079.8000488281</ele>
        <time>2014-05-31T12:08:44.000Z</time>
      </trkpt>
      <trkpt lat="46.44991" lon="5.95951">
        <ele>1079.5999755859</ele>
        <time>2014-05-31T12:08:48.000Z</time>
      </trkpt>
      <trkpt lat="46.44995" lon="5.95948">
        <ele>1079.1999511719</ele>
        <time>2014-05-31T12:08:53.000Z</time>
      </trkpt>
      <trkpt lat="46.44998" lon="5.9595">
        <ele>1079</ele>
        <time>2014-05-31T12:08:55.000Z</time>
      </trkpt>
      <trkpt lat="46.45001" lon="5.95947">
        <ele>1078.4000244141</ele>
        <time>2014-05-31T12:08:57.000Z</time>
      </trkpt>
      <trkpt lat="46.45011" lon="5.9595">
        <ele>1077.8000488281</ele>
        <time>2014-05-31T12:09:01.000Z</time>
      </trkpt>
      <trkpt lat="46.45013" lon="5.95955">
        <ele>1078</ele>
        <time>2014-05-31T12:09:06.000Z</time>
      </trkpt>
      <trkpt lat="46.45013" lon="5.95957">
        <ele>1078.1999511719</ele>
        <time>2014-05-31T12:09:10.000Z</time>
      </trkpt>
      <trkpt lat="46.45007" lon="5.9596">
        <ele>1079</ele>
        <time>2014-05-31T12:09:14.000Z</time>
      </trkpt>
      <trkpt lat="46.44998" lon="5.95972">
        <ele>1080.5999755859</ele>
        <time>2014-05-31T12:09:20.000Z</time>
      </trkpt>
      <trkpt lat="46.44997" lon="5.95974">
        <ele>1080.8000488281</ele>
        <time>2014-05-31T12:09:21.000Z</time>
      </trkpt>
      <trkpt lat="46.44996" lon="5.95986">
        <ele>1081.1999511719</ele>
        <time>2014-05-31T12:09:27.000Z</time>
      </trkpt>
      <trkpt lat="46.44992" lon="5.95992">
        <ele>1081.8000488281</ele>
        <time>2014-05-31T12:09:34.000Z</time>
      </trkpt>
      <trkpt lat="46.44988" lon="5.96005">
        <ele>1082.8000488281</ele>
        <time>2014-05-31T12:09:40.000Z</time>
      </trkpt>
      <trkpt lat="46.44986" lon="5.96012">
        <ele>1083.4000244141</ele>
        <time>2014-05-31T12:09:42.000Z</time>
      </trkpt>
      <trkpt lat="46.44979" lon="5.96018">
        <ele>1084.1999511719</ele>
        <time>2014-05-31T12:09:46.000Z</time>
      </trkpt>
      <trkpt lat="46.44978" lon="5.96025">
        <ele>1084.5999755859</ele>
        <time>2014-05-31T12:09:52.000Z</time>
      </trkpt>
      <trkpt lat="46.44972" lon="5.96033">
        <ele>1085.4000244141</ele>
        <time>2014-05-31T12:09:57.000Z</time>
      </trkpt>
      <trkpt lat="46.44963" lon="5.96037">
        <ele>1086</ele>
        <time>2014-05-31T12:10:01.000Z</time>
      </trkpt>
      <trkpt lat="46.44955" lon="5.96047">
        <ele>1087.8000488281</ele>
        <time>2014-05-31T12:10:07.000Z</time>
      </trkpt>
      <trkpt lat="46.44954" lon="5.96048">
        <ele>1088</ele>
        <time>2014-05-31T12:10:09.000Z</time>
      </trkpt>
      <trkpt lat="46.44951" lon="5.96059">
        <ele>1089.4000244141</ele>
        <time>2014-05-31T12:10:15.000Z</time>
      </trkpt>
      <trkpt lat="46.44945" lon="5.96066">
        <ele>1090.5999755859</ele>
        <time>2014-05-31T12:10:22.000Z</time>
      </trkpt>
      <trkpt lat="46.44938" lon="5.96066">
        <ele>1091.4000244141</ele>
        <time>2014-05-31T12:10:26.000Z</time>
      </trkpt>
      <trkpt lat="46.44931" lon="5.96075">
        <ele>1092.8000488281</ele>
        <time>2014-05-31T12:10:32.000Z</time>
      </trkpt>
      <trkpt lat="46.44929" lon="5.96083">
        <ele>1093.5999755859</ele>
        <time>2014-05-31T12:10:36.000Z</time>
      </trkpt>
      <trkpt lat="46.44923" lon="5.96095">
        <ele>1095.4000244141</ele>
        <time>2014-05-31T12:10:44.000Z</time>
      </trkpt>
      <trkpt lat="46.44919" lon="5.96094">
        <ele>1095.8000488281</ele>
        <time>2014-05-31T12:10:52.000Z</time>
      </trkpt>
      <trkpt lat="46.44907" lon="5.96097">
        <ele>1097.5999755859</ele>
        <time>2014-05-31T12:10:57.000Z</time>
      </trkpt>
      <trkpt lat="46.44899" lon="5.96103">
        <ele>1099.1999511719</ele>
        <time>2014-05-31T12:11:03.000Z</time>
      </trkpt>
      <trkpt lat="46.44895" lon="5.96103">
        <ele>1099.8000488281</ele>
        <time>2014-05-31T12:11:06.000Z</time>
      </trkpt>
      <trkpt lat="46.44885" lon="5.96099">
        <ele>1100.1999511719</ele>
        <time>2014-05-31T12:11:12.000Z</time>
      </trkpt>
      <trkpt lat="46.44877" lon="5.96085">
        <ele>1099.8000488281</ele>
        <time>2014-05-31T12:11:16.000Z</time>
      </trkpt>
      <trkpt lat="46.4487" lon="5.96081">
        <ele>1100</ele>
        <time>2014-05-31T12:11:20.000Z</time>
      </trkpt>
      <trkpt lat="46.44861" lon="5.9609">
        <ele>1101.8000488281</ele>
        <time>2014-05-31T12:11:25.000Z</time>
      </trkpt>
      <trkpt lat="46.44863" lon="5.96097">
        <ele>1102.1999511719</ele>
        <time>2014-05-31T12:11:30.000Z</time>
      </trkpt>
      <trkpt lat="46.44863" lon="5.96106">
        <ele>1103</ele>
        <time>2014-05-31T12:11:35.000Z</time>
      </trkpt>
      <trkpt lat="46.4486" lon="5.96117">
        <ele>1103.8000488281</ele>
        <time>2014-05-31T12:11:42.000Z</time>
      </trkpt>
      <trkpt lat="46.44859" lon="5.96131">
        <ele>1104.4000244141</ele>
        <time>2014-05-31T12:11:47.000Z</time>
      </trkpt>
      <trkpt lat="46.44855" lon="5.96141">
        <ele>1105.1999511719</ele>
        <time>2014-05-31T12:11:51.000Z</time>
      </trkpt>
      <trkpt lat="46.44847" lon="5.96153">
        <ele>1106</ele>
        <time>2014-05-31T12:11:57.000Z</time>
      </trkpt>
      <trkpt lat="46.44841" lon="5.96162">
        <ele>1106.8000488281</ele>
        <time>2014-05-31T12:12:04.000Z</time>
      </trkpt>
      <trkpt lat="46.44835" lon="5.96171">
        <ele>1107.8000488281</ele>
        <time>2014-05-31T12:12:10.000Z</time>
      </trkpt>
      <trkpt lat="46.44833" lon="5.96176">
        <ele>1108.5999755859</ele>
        <time>2014-05-31T12:12:13.000Z</time>
      </trkpt>
      <trkpt lat="46.44833" lon="5.96192">
        <ele>1109.8000488281</ele>
        <time>2014-05-31T12:12:19.000Z</time>
      </trkpt>
      <trkpt lat="46.4484" lon="5.96201">
        <ele>1110</ele>
        <time>2014-05-31T12:12:24.000Z</time>
      </trkpt>
      <trkpt lat="46.4484" lon="5.96202">
        <ele>1110</ele>
        <time>2014-05-31T12:12:25.000Z</time>
      </trkpt>
      <trkpt lat="46.44842" lon="5.96209">
        <ele>1110.4000244141</ele>
        <time>2014-05-31T12:12:30.000Z</time>
      </trkpt>
      <trkpt lat="46.44844" lon="5.96211">
        <ele>1110.5999755859</ele>
        <time>2014-05-31T12:12:32.000Z</time>
      </trkpt>
      <trkpt lat="46.44846" lon="5.96216">
        <ele>1110.8000488281</ele>
        <time>2014-05-31T12:12:39.000Z</time>
      </trkpt>
      <trkpt lat="46.44846" lon="5.96221">
        <ele>1111.1999511719</ele>
        <time>2014-05-31T12:12:47.000Z</time>
      </trkpt>
      <trkpt lat="46.4485" lon="5.96226">
        <ele>1111.1999511719</ele>
        <time>2014-05-31T12:12:54.000Z</time>
      </trkpt>
      <trkpt lat="46.44859" lon="5.96235">
        <ele>1110.5999755859</ele>
        <time>2014-05-31T12:12:58.000Z</time>
      </trkpt>
      <trkpt lat="46.44874" lon="5.96249">
        <ele>1109.8000488281</ele>
        <time>2014-05-31T12:13:03.000Z</time>
      </trkpt>
      <trkpt lat="46.44883" lon="5.96263">
        <ele>1109.1999511719</ele>
        <time>2014-05-31T12:13:08.000Z</time>
      </trkpt>
      <trkpt lat="46.44888" lon="5.96268">
        <ele>1109</ele>
        <time>2014-05-31T12:13:10.000Z</time>
      </trkpt>
      <trkpt lat="46.44886" lon="5.96268">
        <ele>1109.1999511719</ele>
        <time>2014-05-31T12:13:20.000Z</time>
      </trkpt>
      <trkpt lat="46.44878" lon="5.96268">
        <ele>1109.8000488281</ele>
        <time>2014-05-31T12:13:25.000Z</time>
      </trkpt>
      <trkpt lat="46.44866" lon="5.96258">
        <ele>1110.5999755859</ele>
        <time>2014-05-31T12:13:30.000Z</time>
      </trkpt>
      <trkpt lat="46.44853" lon="5.96249">
        <ele>1111.4000244141</ele>
        <time>2014-05-31T12:13:34.000Z</time>
      </trkpt>
      <trkpt lat="46.44841" lon="5.96234">
        <ele>1112</ele>
        <time>2014-05-31T12:13:38.000Z</time>
      </trkpt>
      <trkpt lat="46.4484" lon="5.96232">
        <ele>1112.1999511719</ele>
        <time>2014-05-31T12:13:39.000Z</time>
      </trkpt>
      <trkpt lat="46.44826" lon="5.96214">
        <ele>1112.1999511719</ele>
        <time>2014-05-31T12:13:45.000Z</time>
      </trkpt>
      <trkpt lat="46.44823" lon="5.96212">
        <ele>1112.4000244141</ele>
        <time>2014-05-31T12:13:46.000Z</time>
      </trkpt>
      <trkpt lat="46.44823" lon="5.9621">
        <ele>1112.1999511719</ele>
        <time>2014-05-31T12:13:51.000Z</time>
      </trkpt>
      <trkpt lat="46.44831" lon="5.96206">
        <ele>1111.1999511719</ele>
        <time>2014-05-31T12:14:04.000Z</time>
      </trkpt>
      <trkpt lat="46.44827" lon="5.96207">
        <ele>1111.5999755859</ele>
        <time>2014-05-31T12:14:12.000Z</time>
      </trkpt>
      <trkpt lat="46.44822" lon="5.96208">
        <ele>1112.1999511719</ele>
        <time>2014-05-31T12:14:19.000Z</time>
      </trkpt>
      <trkpt lat="46.44819" lon="5.96207">
        <ele>1112.1999511719</ele>
        <time>2014-05-31T12:14:24.000Z</time>
      </trkpt>
      <trkpt lat="46.44812" lon="5.96187">
        <ele>1111.1999511719</ele>
        <time>2014-05-31T12:14:29.000Z</time>
      </trkpt>
      <trkpt lat="46.448" lon="5.96172">
        <ele>1111.4000244141</ele>
        <time>2014-05-31T12:14:34.000Z</time>
      </trkpt>
      <trkpt lat="46.44788" lon="5.96162">
        <ele>1111.8000488281</ele>
        <time>2014-05-31T12:14:38.000Z</time>
      </trkpt>
      <trkpt lat="46.44774" lon="5.96143">
        <ele>1111.5999755859</ele>
        <time>2014-05-31T12:14:43.000Z</time>
      </trkpt>
      <trkpt lat="46.44764" lon="5.96138">
        <ele>1112.4000244141</ele>
        <time>2014-05-31T12:14:47.000Z</time>
      </trkpt>
      <trkpt lat="46.44754" lon="5.96134">
        <ele>1113.1999511719</ele>
        <time>2014-05-31T12:14:51.000Z</time>
      </trkpt>
      <trkpt lat="46.44752" lon="5.96133">
        <ele>1113.4000244141</ele>
        <time>2014-05-31T12:14:52.000Z</time>
      </trkpt>
      <trkpt lat="46.44738" lon="5.96121">
        <ele>1114</ele>
        <time>2014-05-31T12:14:57.000Z</time>
      </trkpt>
      <trkpt lat="46.44728" lon="5.96116">
        <ele>1114.8000488281</ele>
        <time>2014-05-31T12:15:02.000Z</time>
      </trkpt>
      <trkpt lat="46.44717" lon="5.96107">
        <ele>1115.8000488281</ele>
        <time>2014-05-31T12:15:06.000Z</time>
      </trkpt>
      <trkpt lat="46.44705" lon="5.96099">
        <ele>1117</ele>
        <time>2014-05-31T12:15:11.000Z</time>
      </trkpt>
      <trkpt lat="46.44695" lon="5.96088">
        <ele>1117.5999755859</ele>
        <time>2014-05-31T12:15:15.000Z</time>
      </trkpt>
      <trkpt lat="46.44681" lon="5.96075">
        <ele>1118.8000488281</ele>
        <time>2014-05-31T12:15:20.000Z</time>
      </trkpt>
      <trkpt lat="46.44671" lon="5.96064">
        <ele>1119.4000244141</ele>
        <time>2014-05-31T12:15:25.000Z</time>
      </trkpt>
      <trkpt lat="46.44661" lon="5.96057">
        <ele>1120.1999511719</ele>
        <time>2014-05-31T12:15:29.000Z</time>
      </trkpt>
      <trkpt lat="46.44659" lon="5.96057">
        <ele>1120.5999755859</ele>
        <time>2014-05-31T12:15:30.000Z</time>
      </trkpt>
      <trkpt lat="46.44656" lon="5.96053">
        <ele>1121</ele>
        <time>2014-05-31T12:15:32.000Z</time>
      </trkpt>
      <trkpt lat="46.44648" lon="5.96049">
        <ele>1122</ele>
        <time>2014-05-31T12:15:36.000Z</time>
      </trkpt>
      <trkpt lat="46.44638" lon="5.96039">
        <ele>1123.1999511719</ele>
        <time>2014-05-31T12:15:41.000Z</time>
      </trkpt>
      <trkpt lat="46.44631" lon="5.96034">
        <ele>1124</ele>
        <time>2014-05-31T12:15:47.000Z</time>
      </trkpt>
      <trkpt lat="46.44624" lon="5.96027">
        <ele>1124.8000488281</ele>
        <time>2014-05-31T12:16:02.000Z</time>
      </trkpt>
      <trkpt lat="46.4462" lon="5.96024">
        <ele>1125.4000244141</ele>
        <time>2014-05-31T12:16:07.000Z</time>
      </trkpt>
      <trkpt lat="46.44617" lon="5.9602">
        <ele>1125.8000488281</ele>
        <time>2014-05-31T12:16:16.000Z</time>
      </trkpt>
      <trkpt lat="46.44612" lon="5.96023">
        <ele>1126.4000244141</ele>
        <time>2014-05-31T12:16:20.000Z</time>
      </trkpt>
      <trkpt lat="46.44607" lon="5.96026">
        <ele>1127.1999511719</ele>
        <time>2014-05-31T12:16:25.000Z</time>
      </trkpt>
      <trkpt lat="46.44599" lon="5.96026">
        <ele>1128.1999511719</ele>
        <time>2014-05-31T12:16:31.000Z</time>
      </trkpt>
      <trkpt lat="46.44585" lon="5.96019">
        <ele>1130</ele>
        <time>2014-05-31T12:16:37.000Z</time>
      </trkpt>
      <trkpt lat="46.44575" lon="5.96015">
        <ele>1131.1999511719</ele>
        <time>2014-05-31T12:16:41.000Z</time>
      </trkpt>
      <trkpt lat="46.44566" lon="5.96007">
        <ele>1132.4000244141</ele>
        <time>2014-05-31T12:16:46.000Z</time>
      </trkpt>
      <trkpt lat="46.44567" lon="5.96004">
        <ele>1132.1999511719</ele>
        <time>2014-05-31T12:16:50.000Z</time>
      </trkpt>
      <trkpt lat="46.44576" lon="5.96006">
        <ele>1131</ele>
        <time>2014-05-31T12:16:54.000Z</time>
      </trkpt>
      <trkpt lat="46.44589" lon="5.96007">
        <ele>1129.1999511719</ele>
        <time>2014-05-31T12:16:59.000Z</time>
      </trkpt>
      <trkpt lat="46.44594" lon="5.96002">
        <ele>1128.5999755859</ele>
        <time>2014-05-31T12:17:02.000Z</time>
      </trkpt>
      <trkpt lat="46.446" lon="5.95995">
        <ele>1127.5999755859</ele>
        <time>2014-05-31T12:17:06.000Z</time>
      </trkpt>
      <trkpt lat="46.44608" lon="5.95977">
        <ele>1126</ele>
        <time>2014-05-31T12:17:10.000Z</time>
      </trkpt>
      <trkpt lat="46.4461" lon="5.95969">
        <ele>1125.4000244141</ele>
        <time>2014-05-31T12:17:14.000Z</time>
      </trkpt>
      <trkpt lat="46.44617" lon="5.95959">
        <ele>1123.8000488281</ele>
        <time>2014-05-31T12:17:19.000Z</time>
      </trkpt>
      <trkpt lat="46.44626" lon="5.95949">
        <ele>1122.1999511719</ele>
        <time>2014-05-31T12:17:23.000Z</time>
      </trkpt>
      <trkpt lat="46.44634" lon="5.95939">
        <ele>1120.1999511719</ele>
        <time>2014-05-31T12:17:27.000Z</time>
      </trkpt>
      <trkpt lat="46.44637" lon="5.95938">
        <ele>1119.5999755859</ele>
        <time>2014-05-31T12:17:30.000Z</time>
      </trkpt>
      <trkpt lat="46.44638" lon="5.95939">
        <ele>1119.5999755859</ele>
        <time>2014-05-31T12:17:32.000Z</time>
      </trkpt>
      <trkpt lat="46.4464" lon="5.95943">
        <ele>1119.5999755859</ele>
        <time>2014-05-31T12:17:34.000Z</time>
      </trkpt>
      <trkpt lat="46.44644" lon="5.95944">
        <ele>1119</ele>
        <time>2014-05-31T12:17:41.000Z</time>
      </trkpt>
      <trkpt lat="46.44644" lon="5.95941">
        <ele>1118.8000488281</ele>
        <time>2014-05-31T12:17:43.000Z</time>
      </trkpt>
      <trkpt lat="46.44645" lon="5.95933">
        <ele>1118</ele>
        <time>2014-05-31T12:17:48.000Z</time>
      </trkpt>
      <trkpt lat="46.44641" lon="5.95924">
        <ele>1118.1999511719</ele>
        <time>2014-05-31T12:17:57.000Z</time>
      </trkpt>
      <trkpt lat="46.44638" lon="5.95921">
        <ele>1118.5999755859</ele>
        <time>2014-05-31T12:18:01.000Z</time>
      </trkpt>
      <trkpt lat="46.44628" lon="5.95923">
        <ele>1120.1999511719</ele>
        <time>2014-05-31T12:18:06.000Z</time>
      </trkpt>
      <trkpt lat="46.44626" lon="5.9592">
        <ele>1120.4000244141</ele>
        <time>2014-05-31T12:18:10.000Z</time>
      </trkpt>
      <trkpt lat="46.44625" lon="5.95916">
        <ele>1120.1999511719</ele>
        <time>2014-05-31T12:18:14.000Z</time>
      </trkpt>
      <trkpt lat="46.44626" lon="5.95912">
        <ele>1120</ele>
        <time>2014-05-31T12:18:16.000Z</time>
      </trkpt>
      <trkpt lat="46.44623" lon="5.959">
        <ele>1119.5999755859</ele>
        <time>2014-05-31T12:18:21.000Z</time>
      </trkpt>
      <trkpt lat="46.44625" lon="5.95893">
        <ele>1119</ele>
        <time>2014-05-31T12:18:23.000Z</time>
      </trkpt>
      <trkpt lat="46.44627" lon="5.95888">
        <ele>1118.1999511719</ele>
        <time>2014-05-31T12:18:27.000Z</time>
      </trkpt>
      <trkpt lat="46.44626" lon="5.95883">
        <ele>1117.8000488281</ele>
        <time>2014-05-31T12:18:30.000Z</time>
      </trkpt>
      <trkpt lat="46.44629" lon="5.95869">
        <ele>1116</ele>
        <time>2014-05-31T12:18:35.000Z</time>
      </trkpt>
      <trkpt lat="46.44633" lon="5.9586">
        <ele>1114.8000488281</ele>
        <time>2014-05-31T12:18:41.000Z</time>
      </trkpt>
      <trkpt lat="46.44635" lon="5.95858">
        <ele>1114.4000244141</ele>
        <time>2014-05-31T12:18:44.000Z</time>
      </trkpt>
      <trkpt lat="46.44638" lon="5.95849">
        <ele>1113.4000244141</ele>
        <time>2014-05-31T12:18:48.000Z</time>
      </trkpt>
      <trkpt lat="46.44645" lon="5.9584">
        <ele>1112</ele>
        <time>2014-05-31T12:18:51.000Z</time>
      </trkpt>
      <trkpt lat="46.44649" lon="5.9582">
        <ele>1110</ele>
        <time>2014-05-31T12:18:58.000Z</time>
      </trkpt>
      <trkpt lat="46.44659" lon="5.95811">
        <ele>1108.5999755859</ele>
        <time>2014-05-31T12:19:03.000Z</time>
      </trkpt>
      <trkpt lat="46.44664" lon="5.95806">
        <ele>1108.1999511719</ele>
        <time>2014-05-31T12:19:05.000Z</time>
      </trkpt>
      <trkpt lat="46.44668" lon="5.95796">
        <ele>1107.4000244141</ele>
        <time>2014-05-31T12:19:10.000Z</time>
      </trkpt>
      <trkpt lat="46.44671" lon="5.9579">
        <ele>1106.8000488281</ele>
        <time>2014-05-31T12:19:17.000Z</time>
      </trkpt>
      <trkpt lat="46.44662" lon="5.95788">
        <ele>1107.1999511719</ele>
        <time>2014-05-31T12:19:28.000Z</time>
      </trkpt>
      <trkpt lat="46.44662" lon="5.95787">
        <ele>1107.1999511719</ele>
        <time>2014-05-31T12:19:29.000Z</time>
      </trkpt>
      <trkpt lat="46.44659" lon="5.95777">
        <ele>1106.5999755859</ele>
        <time>2014-05-31T12:19:34.000Z</time>
      </trkpt>
      <trkpt lat="46.44656" lon="5.95774">
        <ele>1106.5999755859</ele>
        <time>2014-05-31T12:19:44.000Z</time>
      </trkpt>
      <trkpt lat="46.44649" lon="5.95756">
        <ele>1106</ele>
        <time>2014-05-31T12:19:49.000Z</time>
      </trkpt>
      <trkpt lat="46.44647" lon="5.95752">
        <ele>1106</ele>
        <time>2014-05-31T12:19:50.000Z</time>
      </trkpt>
      <trkpt lat="46.44641" lon="5.95742">
        <ele>1106</ele>
        <time>2014-05-31T12:19:53.000Z</time>
      </trkpt>
      <trkpt lat="46.44634" lon="5.95724">
        <ele>1106</ele>
        <time>2014-05-31T12:19:57.000Z</time>
      </trkpt>
      <trkpt lat="46.44626" lon="5.957">
        <ele>1104.4000244141</ele>
        <time>2014-05-31T12:20:03.000Z</time>
      </trkpt>
      <trkpt lat="46.44621" lon="5.95694">
        <ele>1104.5999755859</ele>
        <time>2014-05-31T12:20:06.000Z</time>
      </trkpt>
      <trkpt lat="46.44618" lon="5.95694">
        <ele>1104.8000488281</ele>
        <time>2014-05-31T12:20:11.000Z</time>
      </trkpt>
      <trkpt lat="46.44615" lon="5.9569">
        <ele>1104.8000488281</ele>
        <time>2014-05-31T12:20:16.000Z</time>
      </trkpt>
      <trkpt lat="46.44609" lon="5.95685">
        <ele>1105</ele>
        <time>2014-05-31T12:20:22.000Z</time>
      </trkpt>
      <trkpt lat="46.44608" lon="5.9568">
        <ele>1104.8000488281</ele>
        <time>2014-05-31T12:20:24.000Z</time>
      </trkpt>
      <trkpt lat="46.44604" lon="5.95661">
        <ele>1104</ele>
        <time>2014-05-31T12:20:29.000Z</time>
      </trkpt>
      <trkpt lat="46.446" lon="5.95656">
        <ele>1104</ele>
        <time>2014-05-31T12:20:31.000Z</time>
      </trkpt>
      <trkpt lat="46.44592" lon="5.95651">
        <ele>1104.4000244141</ele>
        <time>2014-05-31T12:20:35.000Z</time>
      </trkpt>
      <trkpt lat="46.44582" lon="5.95645">
        <ele>1104.8000488281</ele>
        <time>2014-05-31T12:20:41.000Z</time>
      </trkpt>
      <trkpt lat="46.44574" lon="5.95635">
        <ele>1104.8000488281</ele>
        <time>2014-05-31T12:20:48.000Z</time>
      </trkpt>
      <trkpt lat="46.44564" lon="5.95621">
        <ele>1104.1999511719</ele>
        <time>2014-05-31T12:20:53.000Z</time>
      </trkpt>
      <trkpt lat="46.44556" lon="5.95606">
        <ele>1103.8000488281</ele>
        <time>2014-05-31T12:20:57.000Z</time>
      </trkpt>
      <trkpt lat="46.44546" lon="5.95597">
        <ele>1103.8000488281</ele>
        <time>2014-05-31T12:21:01.000Z</time>
      </trkpt>
      <trkpt lat="46.44541" lon="5.95597">
        <ele>1104.4000244141</ele>
        <time>2014-05-31T12:21:09.000Z</time>
      </trkpt>
      <trkpt lat="46.44541" lon="5.95596">
        <ele>1104.4000244141</ele>
        <time>2014-05-31T12:21:12.000Z</time>
      </trkpt>
      <trkpt lat="46.44536" lon="5.95586">
        <ele>1104</ele>
        <time>2014-05-31T12:21:17.000Z</time>
      </trkpt>
      <trkpt lat="46.4453" lon="5.95564">
        <ele>1102.5999755859</ele>
        <time>2014-05-31T12:21:22.000Z</time>
      </trkpt>
      <trkpt lat="46.44524" lon="5.95552">
        <ele>1102</ele>
        <time>2014-05-31T12:21:26.000Z</time>
      </trkpt>
      <trkpt lat="46.44512" lon="5.95537">
        <ele>1101.5999755859</ele>
        <time>2014-05-31T12:21:31.000Z</time>
      </trkpt>
      <trkpt lat="46.44507" lon="5.95532">
        <ele>1101.5999755859</ele>
        <time>2014-05-31T12:21:35.000Z</time>
      </trkpt>
      <trkpt lat="46.44506" lon="5.95537">
        <ele>1102.1999511719</ele>
        <time>2014-05-31T12:21:40.000Z</time>
      </trkpt>
      <trkpt lat="46.44504" lon="5.95538">
        <ele>1102.5999755859</ele>
        <time>2014-05-31T12:21:42.000Z</time>
      </trkpt>
      <trkpt lat="46.44499" lon="5.95535">
        <ele>1102.8000488281</ele>
        <time>2014-05-31T12:21:47.000Z</time>
      </trkpt>
      <trkpt lat="46.44501" lon="5.95535">
        <ele>1102.5999755859</ele>
        <time>2014-05-31T12:21:50.000Z</time>
      </trkpt>
      <trkpt lat="46.44508" lon="5.95537">
        <ele>1102</ele>
        <time>2014-05-31T12:21:54.000Z</time>
      </trkpt>
      <trkpt lat="46.44513" lon="5.95537">
        <ele>1101.4000244141</ele>
        <time>2014-05-31T12:21:58.000Z</time>
      </trkpt>
      <trkpt lat="46.4452" lon="5.95538">
        <ele>1100.8000488281</ele>
        <time>2014-05-31T12:22:02.000Z</time>
      </trkpt>
      <trkpt lat="46.44529" lon="5.95539">
        <ele>1100</ele>
        <time>2014-05-31T12:22:06.000Z</time>
      </trkpt>
      <trkpt lat="46.44539" lon="5.95551">
        <ele>1100.1999511719</ele>
        <time>2014-05-31T12:22:11.000Z</time>
      </trkpt>
      <trkpt lat="46.4454" lon="5.95561">
        <ele>1101</ele>
        <time>2014-05-31T12:22:14.000Z</time>
      </trkpt>
      <trkpt lat="46.44541" lon="5.95573">
        <ele>1102.1999511719</ele>
        <time>2014-05-31T12:22:18.000Z</time>
      </trkpt>
      <trkpt lat="46.44535" lon="5.95587">
        <ele>1104.1999511719</ele>
        <time>2014-05-31T12:22:24.000Z</time>
      </trkpt>
      <trkpt lat="46.44529" lon="5.95604">
        <ele>1106.4000244141</ele>
        <time>2014-05-31T12:22:31.000Z</time>
      </trkpt>
      <trkpt lat="46.44529" lon="5.95613">
        <ele>1107.4000244141</ele>
        <time>2014-05-31T12:22:33.000Z</time>
      </trkpt>
      <trkpt lat="46.44532" lon="5.95628">
        <ele>1108.5999755859</ele>
        <time>2014-05-31T12:22:38.000Z</time>
      </trkpt>
      <trkpt lat="46.44535" lon="5.95644">
        <ele>1110</ele>
        <time>2014-05-31T12:22:44.000Z</time>
      </trkpt>
      <trkpt lat="46.44535" lon="5.95646">
        <ele>1110.4000244141</ele>
        <time>2014-05-31T12:22:45.000Z</time>
      </trkpt>
      <trkpt lat="46.44531" lon="5.95657">
        <ele>1112</ele>
        <time>2014-05-31T12:22:51.000Z</time>
      </trkpt>
      <trkpt lat="46.44528" lon="5.95669">
        <ele>1113.5999755859</ele>
        <time>2014-05-31T12:22:58.000Z</time>
      </trkpt>
      <trkpt lat="46.44528" lon="5.95679">
        <ele>1114.5999755859</ele>
        <time>2014-05-31T12:23:06.000Z</time>
      </trkpt>
      <trkpt lat="46.44524" lon="5.95685">
        <ele>1115.8000488281</ele>
        <time>2014-05-31T12:23:12.000Z</time>
      </trkpt>
      <trkpt lat="46.44523" lon="5.95686">
        <ele>1116</ele>
        <time>2014-05-31T12:23:13.000Z</time>
      </trkpt>
      <trkpt lat="46.44523" lon="5.95695">
        <ele>1116.8000488281</ele>
        <time>2014-05-31T12:23:19.000Z</time>
      </trkpt>
      <trkpt lat="46.44516" lon="5.95709">
        <ele>1119</ele>
        <time>2014-05-31T12:23:24.000Z</time>
      </trkpt>
      <trkpt lat="46.44511" lon="5.95714">
        <ele>1120</ele>
        <time>2014-05-31T12:23:27.000Z</time>
      </trkpt>
      <trkpt lat="46.44506" lon="5.95705">
        <ele>1119.5999755859</ele>
        <time>2014-05-31T12:23:32.000Z</time>
      </trkpt>
      <trkpt lat="46.44497" lon="5.95696">
        <ele>1119.8000488281</ele>
        <time>2014-05-31T12:23:37.000Z</time>
      </trkpt>
      <trkpt lat="46.44497" lon="5.95695">
        <ele>1119.5999755859</ele>
        <time>2014-05-31T12:23:39.000Z</time>
      </trkpt>
      <trkpt lat="46.44501" lon="5.95683">
        <ele>1118</ele>
        <time>2014-05-31T12:23:45.000Z</time>
      </trkpt>
      <trkpt lat="46.44504" lon="5.95666">
        <ele>1116.1999511719</ele>
        <time>2014-05-31T12:23:51.000Z</time>
      </trkpt>
      <trkpt lat="46.44503" lon="5.95664">
        <ele>1116</ele>
        <time>2014-05-31T12:23:52.000Z</time>
      </trkpt>
      <trkpt lat="46.44503" lon="5.95651">
        <ele>1114.5999755859</ele>
        <time>2014-05-31T12:23:56.000Z</time>
      </trkpt>
      <trkpt lat="46.44504" lon="5.95638">
        <ele>1113.1999511719</ele>
        <time>2014-05-31T12:24:01.000Z</time>
      </trkpt>
      <trkpt lat="46.44505" lon="5.95637">
        <ele>1113</ele>
        <time>2014-05-31T12:24:02.000Z</time>
      </trkpt>
      <trkpt lat="46.44508" lon="5.95629">
        <ele>1111.5999755859</ele>
        <time>2014-05-31T12:24:06.000Z</time>
      </trkpt>
      <trkpt lat="46.4451" lon="5.95626">
        <ele>1111</ele>
        <time>2014-05-31T12:24:08.000Z</time>
      </trkpt>
      <trkpt lat="46.44513" lon="5.95603">
        <ele>1108.1999511719</ele>
        <time>2014-05-31T12:24:14.000Z</time>
      </trkpt>
      <trkpt lat="46.44516" lon="5.95587">
        <ele>1106.1999511719</ele>
        <time>2014-05-31T12:24:18.000Z</time>
      </trkpt>
      <trkpt lat="46.44516" lon="5.95575">
        <ele>1105</ele>
        <time>2014-05-31T12:24:23.000Z</time>
      </trkpt>
      <trkpt lat="46.44523" lon="5.9557">
        <ele>1103.8000488281</ele>
        <time>2014-05-31T12:24:28.000Z</time>
      </trkpt>
      <trkpt lat="46.44526" lon="5.95569">
        <ele>1103.4000244141</ele>
        <time>2014-05-31T12:24:29.000Z</time>
      </trkpt>
      <trkpt lat="46.44529" lon="5.95568">
        <ele>1103</ele>
        <time>2014-05-31T12:24:31.000Z</time>
      </trkpt>
      <trkpt lat="46.44532" lon="5.9556">
        <ele>1101.8000488281</ele>
        <time>2014-05-31T12:24:35.000Z</time>
      </trkpt>
      <trkpt lat="46.44526" lon="5.95546">
        <ele>1101</ele>
        <time>2014-05-31T12:24:39.000Z</time>
      </trkpt>
      <trkpt lat="46.44522" lon="5.95543">
        <ele>1101.1999511719</ele>
        <time>2014-05-31T12:24:41.000Z</time>
      </trkpt>
      <trkpt lat="46.44506" lon="5.95529">
        <ele>1101.4000244141</ele>
        <time>2014-05-31T12:24:47.000Z</time>
      </trkpt>
      <trkpt lat="46.44505" lon="5.95513">
        <ele>1099.5999755859</ele>
        <time>2014-05-31T12:24:51.000Z</time>
      </trkpt>
      <trkpt lat="46.4452" lon="5.95503">
        <ele>1097.1999511719</ele>
        <time>2014-05-31T12:24:56.000Z</time>
      </trkpt>
      <trkpt lat="46.44533" lon="5.95491">
        <ele>1094.8000488281</ele>
        <time>2014-05-31T12:25:00.000Z</time>
      </trkpt>
      <trkpt lat="46.44542" lon="5.95477">
        <ele>1092.4000244141</ele>
        <time>2014-05-31T12:25:05.000Z</time>
      </trkpt>
      <trkpt lat="46.44546" lon="5.95475">
        <ele>1092</ele>
        <time>2014-05-31T12:25:10.000Z</time>
      </trkpt>
      <trkpt lat="46.44549" lon="5.9547">
        <ele>1091.1999511719</ele>
        <time>2014-05-31T12:25:13.000Z</time>
      </trkpt>
      <trkpt lat="46.44562" lon="5.95462">
        <ele>1089.1999511719</ele>
        <time>2014-05-31T12:25:18.000Z</time>
      </trkpt>
      <trkpt lat="46.44583" lon="5.95447">
        <ele>1086</ele>
        <time>2014-05-31T12:25:24.000Z</time>
      </trkpt>
      <trkpt lat="46.44595" lon="5.95433">
        <ele>1083.8000488281</ele>
        <time>2014-05-31T12:25:28.000Z</time>
      </trkpt>
      <trkpt lat="46.44611" lon="5.95417">
        <ele>1080.8000488281</ele>
        <time>2014-05-31T12:25:33.000Z</time>
      </trkpt>
      <trkpt lat="46.44621" lon="5.95408">
        <ele>1079.1999511719</ele>
        <time>2014-05-31T12:25:37.000Z</time>
      </trkpt>
      <trkpt lat="46.44622" lon="5.95403">
        <ele>1078.4000244141</ele>
        <time>2014-05-31T12:25:41.000Z</time>
      </trkpt>
      <trkpt lat="46.44624" lon="5.95397">
        <ele>1077.5999755859</ele>
        <time>2014-05-31T12:25:47.000Z</time>
      </trkpt>
      <trkpt lat="46.44626" lon="5.95396">
        <ele>1077.1999511719</ele>
        <time>2014-05-31T12:25:49.000Z</time>
      </trkpt>
      <trkpt lat="46.44633" lon="5.95393">
        <ele>1076.4000244141</ele>
        <time>2014-05-31T12:25:53.000Z</time>
      </trkpt>
      <trkpt lat="46.44646" lon="5.95394">
        <ele>1075.5999755859</ele>
        <time>2014-05-31T12:25:58.000Z</time>
      </trkpt>
      <trkpt lat="46.4465" lon="5.95393">
        <ele>1075.1999511719</ele>
        <time>2014-05-31T12:25:59.000Z</time>
      </trkpt>
      <trkpt lat="46.44676" lon="5.95388">
        <ele>1072.4000244141</ele>
        <time>2014-05-31T12:26:06.000Z</time>
      </trkpt>
      <trkpt lat="46.44682" lon="5.9538">
        <ele>1071.4000244141</ele>
        <time>2014-05-31T12:26:09.000Z</time>
      </trkpt>
      <trkpt lat="46.4469" lon="5.95366">
        <ele>1069.5999755859</ele>
        <time>2014-05-31T12:26:15.000Z</time>
      </trkpt>
      <trkpt lat="46.44698" lon="5.95359">
        <ele>1068.1999511719</ele>
        <time>2014-05-31T12:26:20.000Z</time>
      </trkpt>
      <trkpt lat="46.44704" lon="5.9535">
        <ele>1067</ele>
        <time>2014-05-31T12:26:24.000Z</time>
      </trkpt>
      <trkpt lat="46.44707" lon="5.95338">
        <ele>1066</ele>
        <time>2014-05-31T12:26:28.000Z</time>
      </trkpt>
      <trkpt lat="46.44706" lon="5.95332">
        <ele>1065.5999755859</ele>
        <time>2014-05-31T12:26:30.000Z</time>
      </trkpt>
      <trkpt lat="46.44708" lon="5.95323">
        <ele>1065</ele>
        <time>2014-05-31T12:26:35.000Z</time>
      </trkpt>
      <trkpt lat="46.44713" lon="5.9531">
        <ele>1063.5999755859</ele>
        <time>2014-05-31T12:26:39.000Z</time>
      </trkpt>
      <trkpt lat="46.44713" lon="5.95298">
        <ele>1062.8000488281</ele>
        <time>2014-05-31T12:26:44.000Z</time>
      </trkpt>
      <trkpt lat="46.44717" lon="5.95294">
        <ele>1062.4000244141</ele>
        <time>2014-05-31T12:26:48.000Z</time>
      </trkpt>
      <trkpt lat="46.4472" lon="5.95285">
        <ele>1062</ele>
        <time>2014-05-31T12:26:52.000Z</time>
      </trkpt>
      <trkpt lat="46.44721" lon="5.95281">
        <ele>1061.8000488281</ele>
        <time>2014-05-31T12:26:54.000Z</time>
      </trkpt>
      <trkpt lat="46.44717" lon="5.95275">
        <ele>1061.8000488281</ele>
        <time>2014-05-31T12:26:58.000Z</time>
      </trkpt>
      <trkpt lat="46.44707" lon="5.95275">
        <ele>1062.1999511719</ele>
        <time>2014-05-31T12:27:04.000Z</time>
      </trkpt>
      <trkpt lat="46.44703" lon="5.95265">
        <ele>1062</ele>
        <time>2014-05-31T12:27:09.000Z</time>
      </trkpt>
      <trkpt lat="46.447" lon="5.95255">
        <ele>1062</ele>
        <time>2014-05-31T12:27:13.000Z</time>
      </trkpt>
      <trkpt lat="46.44698" lon="5.95249">
        <ele>1061.8000488281</ele>
        <time>2014-05-31T12:27:15.000Z</time>
      </trkpt>
      <trkpt lat="46.44688" lon="5.95232">
        <ele>1061.8000488281</ele>
        <time>2014-05-31T12:27:20.000Z</time>
      </trkpt>
      <trkpt lat="46.44682" lon="5.95226">
        <ele>1061.8000488281</ele>
        <time>2014-05-31T12:27:23.000Z</time>
      </trkpt>
      <trkpt lat="46.44681" lon="5.95226">
        <ele>1062</ele>
        <time>2014-05-31T12:27:25.000Z</time>
      </trkpt>
      <trkpt lat="46.44676" lon="5.95228">
        <ele>1062.1999511719</ele>
        <time>2014-05-31T12:27:29.000Z</time>
      </trkpt>
      <trkpt lat="46.4467" lon="5.95228">
        <ele>1062.4000244141</ele>
        <time>2014-05-31T12:27:33.000Z</time>
      </trkpt>
      <trkpt lat="46.44667" lon="5.95227">
        <ele>1062.4000244141</ele>
        <time>2014-05-31T12:27:35.000Z</time>
      </trkpt>
      <trkpt lat="46.44659" lon="5.95222">
        <ele>1062.4000244141</ele>
        <time>2014-05-31T12:27:39.000Z</time>
      </trkpt>
      <trkpt lat="46.44655" lon="5.95217">
        <ele>1062.1999511719</ele>
        <time>2014-05-31T12:27:41.000Z</time>
      </trkpt>
      <trkpt lat="46.44643" lon="5.95207">
        <ele>1061.5999755859</ele>
        <time>2014-05-31T12:27:47.000Z</time>
      </trkpt>
      <trkpt lat="46.44644" lon="5.95187">
        <ele>1059.8000488281</ele>
        <time>2014-05-31T12:27:53.000Z</time>
      </trkpt>
      <trkpt lat="46.44638" lon="5.95176">
        <ele>1059</ele>
        <time>2014-05-31T12:27:56.000Z</time>
      </trkpt>
      <trkpt lat="46.44635" lon="5.95174">
        <ele>1059</ele>
        <time>2014-05-31T12:27:57.000Z</time>
      </trkpt>
      <trkpt lat="46.44627" lon="5.95157">
        <ele>1057.5999755859</ele>
        <time>2014-05-31T12:28:02.000Z</time>
      </trkpt>
      <trkpt lat="46.44627" lon="5.95153">
        <ele>1057.4000244141</ele>
        <time>2014-05-31T12:28:03.000Z</time>
      </trkpt>
      <trkpt lat="46.44624" lon="5.95145">
        <ele>1056.5999755859</ele>
        <time>2014-05-31T12:28:08.000Z</time>
      </trkpt>
      <trkpt lat="46.44624" lon="5.95132">
        <ele>1055.1999511719</ele>
        <time>2014-05-31T12:28:14.000Z</time>
      </trkpt>
      <trkpt lat="46.44623" lon="5.95126">
        <ele>1054.1999511719</ele>
        <time>2014-05-31T12:28:17.000Z</time>
      </trkpt>
      <trkpt lat="46.44627" lon="5.95119">
        <ele>1053.4000244141</ele>
        <time>2014-05-31T12:28:23.000Z</time>
      </trkpt>
      <trkpt lat="46.44626" lon="5.95112">
        <ele>1052.8000488281</ele>
        <time>2014-05-31T12:28:27.000Z</time>
      </trkpt>
      <trkpt lat="46.44633" lon="5.95102">
        <ele>1052.4000244141</ele>
        <time>2014-05-31T12:28:32.000Z</time>
      </trkpt>
      <trkpt lat="46.44634" lon="5.95099">
        <ele>1052.1999511719</ele>
        <time>2014-05-31T12:28:33.000Z</time>
      </trkpt>
      <trkpt lat="46.44637" lon="5.95091">
        <ele>1051.8000488281</ele>
        <time>2014-05-31T12:28:37.000Z</time>
      </trkpt>
      <trkpt lat="46.44633" lon="5.95084">
        <ele>1051.1999511719</ele>
        <time>2014-05-31T12:28:41.000Z</time>
      </trkpt>
      <trkpt lat="46.44642" lon="5.95078">
        <ele>1051.1999511719</ele>
        <time>2014-05-31T12:28:48.000Z</time>
      </trkpt>
      <trkpt lat="46.4465" lon="5.9507">
        <ele>1051</ele>
        <time>2014-05-31T12:28:53.000Z</time>
      </trkpt>
      <trkpt lat="46.44654" lon="5.95066">
        <ele>1050.5999755859</ele>
        <time>2014-05-31T12:28:56.000Z</time>
      </trkpt>
      <trkpt lat="46.44661" lon="5.95057">
        <ele>1050.1999511719</ele>
        <time>2014-05-31T12:29:03.000Z</time>
      </trkpt>
      <trkpt lat="46.44667" lon="5.95039">
        <ele>1049.5999755859</ele>
        <time>2014-05-31T12:29:08.000Z</time>
      </trkpt>
      <trkpt lat="46.44673" lon="5.95025">
        <ele>1049</ele>
        <time>2014-05-31T12:29:12.000Z</time>
      </trkpt>
      <trkpt lat="46.44673" lon="5.95022">
        <ele>1048.8000488281</ele>
        <time>2014-05-31T12:29:15.000Z</time>
      </trkpt>
      <trkpt lat="46.44676" lon="5.95003">
        <ele>1048</ele>
        <time>2014-05-31T12:29:21.000Z</time>
      </trkpt>
      <trkpt lat="46.44678" lon="5.95">
        <ele>1048</ele>
        <time>2014-05-31T12:29:22.000Z</time>
      </trkpt>
      <trkpt lat="46.44682" lon="5.94995">
        <ele>1048</ele>
        <time>2014-05-31T12:29:27.000Z</time>
      </trkpt>
      <trkpt lat="46.44685" lon="5.9499">
        <ele>1047.8000488281</ele>
        <time>2014-05-31T12:29:29.000Z</time>
      </trkpt>
      <trkpt lat="46.44688" lon="5.94979">
        <ele>1047.5999755859</ele>
        <time>2014-05-31T12:29:34.000Z</time>
      </trkpt>
      <trkpt lat="46.44691" lon="5.94965">
        <ele>1047.4000244141</ele>
        <time>2014-05-31T12:29:38.000Z</time>
      </trkpt>
      <trkpt lat="46.44699" lon="5.94953">
        <ele>1047.4000244141</ele>
        <time>2014-05-31T12:29:42.000Z</time>
      </trkpt>
      <trkpt lat="46.44708" lon="5.94946">
        <ele>1047.4000244141</ele>
        <time>2014-05-31T12:29:46.000Z</time>
      </trkpt>
      <trkpt lat="46.44718" lon="5.94938">
        <ele>1047.8000488281</ele>
        <time>2014-05-31T12:29:52.000Z</time>
      </trkpt>
      <trkpt lat="46.44724" lon="5.94928">
        <ele>1048</ele>
        <time>2014-05-31T12:29:56.000Z</time>
      </trkpt>
      <trkpt lat="46.44725" lon="5.9492">
        <ele>1048</ele>
        <time>2014-05-31T12:29:59.000Z</time>
      </trkpt>
      <trkpt lat="46.44723" lon="5.94908">
        <ele>1047.8000488281</ele>
        <time>2014-05-31T12:30:06.000Z</time>
      </trkpt>
      <trkpt lat="46.44722" lon="5.94907">
        <ele>1047.8000488281</ele>
        <time>2014-05-31T12:30:07.000Z</time>
      </trkpt>
      <trkpt lat="46.44721" lon="5.94904">
        <ele>1047.5999755859</ele>
        <time>2014-05-31T12:30:09.000Z</time>
      </trkpt>
      <trkpt lat="46.44723" lon="5.94898">
        <ele>1047.5999755859</ele>
        <time>2014-05-31T12:30:15.000Z</time>
      </trkpt>
      <trkpt lat="46.44723" lon="5.94897">
        <ele>1047.5999755859</ele>
        <time>2014-05-31T12:30:16.000Z</time>
      </trkpt>
      <trkpt lat="46.44726" lon="5.94888">
        <ele>1047.5999755859</ele>
        <time>2014-05-31T12:30:21.000Z</time>
      </trkpt>
      <trkpt lat="46.44729" lon="5.94886">
        <ele>1047.8000488281</ele>
        <time>2014-05-31T12:30:25.000Z</time>
      </trkpt>
      <trkpt lat="46.4474" lon="5.94885">
        <ele>1047.5999755859</ele>
        <time>2014-05-31T12:30:30.000Z</time>
      </trkpt>
      <trkpt lat="46.44742" lon="5.94882">
        <ele>1047.4000244141</ele>
        <time>2014-05-31T12:30:31.000Z</time>
      </trkpt>
      <trkpt lat="46.44748" lon="5.94876">
        <ele>1047.1999511719</ele>
        <time>2014-05-31T12:30:34.000Z</time>
      </trkpt>
      <trkpt lat="46.44755" lon="5.94885">
        <ele>1047.1999511719</ele>
        <time>2014-05-31T12:30:41.000Z</time>
      </trkpt>
      <trkpt lat="46.44758" lon="5.94892">
        <ele>1047.4000244141</ele>
        <time>2014-05-31T12:30:45.000Z</time>
      </trkpt>
      <trkpt lat="46.44753" lon="5.94904">
        <ele>1047.5999755859</ele>
        <time>2014-05-31T12:30:50.000Z</time>
      </trkpt>
      <trkpt lat="46.44753" lon="5.9491">
        <ele>1047.5999755859</ele>
        <time>2014-05-31T12:30:55.000Z</time>
      </trkpt>
      <trkpt lat="46.44758" lon="5.94915">
        <ele>1047.4000244141</ele>
        <time>2014-05-31T12:31:01.000Z</time>
      </trkpt>
      <trkpt lat="46.44764" lon="5.9492">
        <ele>1047.1999511719</ele>
        <time>2014-05-31T12:31:06.000Z</time>
      </trkpt>
      <trkpt lat="46.44768" lon="5.9492">
        <ele>1047.1999511719</ele>
        <time>2014-05-31T12:31:08.000Z</time>
      </trkpt>
      <trkpt lat="46.44773" lon="5.94924">
        <ele>1047</ele>
        <time>2014-05-31T12:31:13.000Z</time>
      </trkpt>
      <trkpt lat="46.44781" lon="5.94929">
        <ele>1046.8000488281</ele>
        <time>2014-05-31T12:31:18.000Z</time>
      </trkpt>
      <trkpt lat="46.4479" lon="5.94938">
        <ele>1046.5999755859</ele>
        <time>2014-05-31T12:31:22.000Z</time>
      </trkpt>
      <trkpt lat="46.44798" lon="5.94944">
        <ele>1046.4000244141</ele>
        <time>2014-05-31T12:31:27.000Z</time>
      </trkpt>
      <trkpt lat="46.44801" lon="5.94949">
        <ele>1046.4000244141</ele>
        <time>2014-05-31T12:31:29.000Z</time>
      </trkpt>
      <trkpt lat="46.44805" lon="5.94953">
        <ele>1046.1999511719</ele>
        <time>2014-05-31T12:31:31.000Z</time>
      </trkpt>
      <trkpt lat="46.44818" lon="5.94961">
        <ele>1046</ele>
        <time>2014-05-31T12:31:37.000Z</time>
      </trkpt>
      <trkpt lat="46.44823" lon="5.94963">
        <ele>1046</ele>
        <time>2014-05-31T12:31:39.000Z</time>
      </trkpt>
      <trkpt lat="46.44837" lon="5.94968">
        <ele>1045.8000488281</ele>
        <time>2014-05-31T12:31:44.000Z</time>
      </trkpt>
      <trkpt lat="46.44846" lon="5.9497">
        <ele>1045.5999755859</ele>
        <time>2014-05-31T12:31:49.000Z</time>
      </trkpt>
      <trkpt lat="46.44852" lon="5.94973">
        <ele>1045.5999755859</ele>
        <time>2014-05-31T12:31:52.000Z</time>
      </trkpt>
      <trkpt lat="46.4486" lon="5.94979">
        <ele>1045.5999755859</ele>
        <time>2014-05-31T12:31:57.000Z</time>
      </trkpt>
      <trkpt lat="46.44869" lon="5.94988">
        <ele>1045.8000488281</ele>
        <time>2014-05-31T12:32:01.000Z</time>
      </trkpt>
      <trkpt lat="46.44871" lon="5.94991">
        <ele>1046</ele>
        <time>2014-05-31T12:32:05.000Z</time>
      </trkpt>
      <trkpt lat="46.44875" lon="5.94996">
        <ele>1046</ele>
        <time>2014-05-31T12:32:10.000Z</time>
      </trkpt>
      <trkpt lat="46.44876" lon="5.95002">
        <ele>1046.1999511719</ele>
        <time>2014-05-31T12:32:17.000Z</time>
      </trkpt>
      <trkpt lat="46.44876" lon="5.95002">
        <ele>1046.1999511719</ele>
        <time>2014-05-31T12:32:19.000Z</time>
      </trkpt>
      <trkpt lat="46.4487" lon="5.95013">
        <ele>1046.8000488281</ele>
        <time>2014-05-31T12:32:25.000Z</time>
      </trkpt>
      <trkpt lat="46.44871" lon="5.95023">
        <ele>1047</ele>
        <time>2014-05-31T12:32:29.000Z</time>
      </trkpt>
      <trkpt lat="46.44876" lon="5.95035">
        <ele>1047.4000244141</ele>
        <time>2014-05-31T12:32:38.000Z</time>
      </trkpt>
      <trkpt lat="46.44877" lon="5.95035">
        <ele>1047.4000244141</ele>
        <time>2014-05-31T12:32:43.000Z</time>
      </trkpt>
      <trkpt lat="46.44869" lon="5.95043">
        <ele>1047.8000488281</ele>
        <time>2014-05-31T12:32:48.000Z</time>
      </trkpt>
      <trkpt lat="46.44862" lon="5.95048">
        <ele>1048.1999511719</ele>
        <time>2014-05-31T12:32:53.000Z</time>
      </trkpt>
      <trkpt lat="46.44861" lon="5.95047">
        <ele>1048</ele>
        <time>2014-05-31T12:32:54.000Z</time>
      </trkpt>
      <trkpt lat="46.44858" lon="5.95047">
        <ele>1048.1999511719</ele>
        <time>2014-05-31T12:33:01.000Z</time>
      </trkpt>
      <trkpt lat="46.44851" lon="5.95026">
        <ele>1047.4000244141</ele>
        <time>2014-05-31T12:33:07.000Z</time>
      </trkpt>
      <trkpt lat="46.44852" lon="5.95005">
        <ele>1046.5999755859</ele>
        <time>2014-05-31T12:33:11.000Z</time>
      </trkpt>
      <trkpt lat="46.44861" lon="5.94995">
        <ele>1046.1999511719</ele>
        <time>2014-05-31T12:33:15.000Z</time>
      </trkpt>
      <trkpt lat="46.44868" lon="5.9498">
        <ele>1045.5999755859</ele>
        <time>2014-05-31T12:33:21.000Z</time>
      </trkpt>
      <trkpt lat="46.44871" lon="5.94978">
        <ele>1045.4000244141</ele>
        <time>2014-05-31T12:33:22.000Z</time>
      </trkpt>
      <trkpt lat="46.44881" lon="5.94963">
        <ele>1045.1999511719</ele>
        <time>2014-05-31T12:33:27.000Z</time>
      </trkpt>
      <trkpt lat="46.44884" lon="5.9496">
        <ele>1045.1999511719</ele>
        <time>2014-05-31T12:33:28.000Z</time>
      </trkpt>
      <trkpt lat="46.44892" lon="5.94957">
        <ele>1044.5999755859</ele>
        <time>2014-05-31T12:33:32.000Z</time>
      </trkpt>
      <trkpt lat="46.4491" lon="5.94948">
        <ele>1043.5999755859</ele>
        <time>2014-05-31T12:33:37.000Z</time>
      </trkpt>
      <trkpt lat="46.44923" lon="5.9496">
        <ele>1044</ele>
        <time>2014-05-31T12:33:42.000Z</time>
      </trkpt>
      <trkpt lat="46.44925" lon="5.94964">
        <ele>1044.1999511719</ele>
        <time>2014-05-31T12:33:43.000Z</time>
      </trkpt>
      <trkpt lat="46.44935" lon="5.94981">
        <ele>1044.5999755859</ele>
        <time>2014-05-31T12:33:48.000Z</time>
      </trkpt>
      <trkpt lat="46.44946" lon="5.94997">
        <ele>1044.8000488281</ele>
        <time>2014-05-31T12:33:53.000Z</time>
      </trkpt>
      <trkpt lat="46.44957" lon="5.95013">
        <ele>1044.8000488281</ele>
        <time>2014-05-31T12:33:58.000Z</time>
      </trkpt>
      <trkpt lat="46.44969" lon="5.95036">
        <ele>1045</ele>
        <time>2014-05-31T12:34:04.000Z</time>
      </trkpt>
      <trkpt lat="46.44984" lon="5.95053">
        <ele>1044.8000488281</ele>
        <time>2014-05-31T12:34:09.000Z</time>
      </trkpt>
      <trkpt lat="46.44995" lon="5.95067">
        <ele>1044.5999755859</ele>
        <time>2014-05-31T12:34:14.000Z</time>
      </trkpt>
      <trkpt lat="46.44999" lon="5.95084">
        <ele>1044.8000488281</ele>
        <time>2014-05-31T12:34:18.000Z</time>
      </trkpt>
      <trkpt lat="46.45003" lon="5.951">
        <ele>1044.8000488281</ele>
        <time>2014-05-31T12:34:22.000Z</time>
      </trkpt>
      <trkpt lat="46.45008" lon="5.95119">
        <ele>1044.8000488281</ele>
        <time>2014-05-31T12:34:27.000Z</time>
      </trkpt>
      <trkpt lat="46.45012" lon="5.95125">
        <ele>1044.8000488281</ele>
        <time>2014-05-31T12:34:31.000Z</time>
      </trkpt>
      <trkpt lat="46.45017" lon="5.95133">
        <ele>1044.5999755859</ele>
        <time>2014-05-31T12:34:36.000Z</time>
      </trkpt>
      <trkpt lat="46.45025" lon="5.95146">
        <ele>1045</ele>
        <time>2014-05-31T12:34:42.000Z</time>
      </trkpt>
      <trkpt lat="46.45028" lon="5.95153">
        <ele>1045.4000244141</ele>
        <time>2014-05-31T12:34:44.000Z</time>
      </trkpt>
      <trkpt lat="46.45036" lon="5.95175">
        <ele>1047</ele>
        <time>2014-05-31T12:34:49.000Z</time>
      </trkpt>
      <trkpt lat="46.45037" lon="5.95186">
        <ele>1047.8000488281</ele>
        <time>2014-05-31T12:34:52.000Z</time>
      </trkpt>
      <trkpt lat="46.45038" lon="5.95191">
        <ele>1048.1999511719</ele>
        <time>2014-05-31T12:34:55.000Z</time>
      </trkpt>
      <trkpt lat="46.45048" lon="5.95199">
        <ele>1048.4000244141</ele>
        <time>2014-05-31T12:35:00.000Z</time>
      </trkpt>
      <trkpt lat="46.45048" lon="5.95207">
        <ele>1049.1999511719</ele>
        <time>2014-05-31T12:35:04.000Z</time>
      </trkpt>
      <trkpt lat="46.45043" lon="5.95218">
        <ele>1049.5999755859</ele>
        <time>2014-05-31T12:35:08.000Z</time>
      </trkpt>
      <trkpt lat="46.45038" lon="5.95225">
        <ele>1049.8000488281</ele>
        <time>2014-05-31T12:35:12.000Z</time>
      </trkpt>
      <trkpt lat="46.45039" lon="5.95242">
        <ele>1051</ele>
        <time>2014-05-31T12:35:17.000Z</time>
      </trkpt>
      <trkpt lat="46.4504" lon="5.95263">
        <ele>1052.4000244141</ele>
        <time>2014-05-31T12:35:23.000Z</time>
      </trkpt>
      <trkpt lat="46.45038" lon="5.95274">
        <ele>1053.1999511719</ele>
        <time>2014-05-31T12:35:27.000Z</time>
      </trkpt>
      <trkpt lat="46.45037" lon="5.95282">
        <ele>1053.8000488281</ele>
        <time>2014-05-31T12:35:32.000Z</time>
      </trkpt>
      <trkpt lat="46.4504" lon="5.95293">
        <ele>1054.5999755859</ele>
        <time>2014-05-31T12:35:38.000Z</time>
      </trkpt>
      <trkpt lat="46.45043" lon="5.95305">
        <ele>1055.1999511719</ele>
        <time>2014-05-31T12:35:42.000Z</time>
      </trkpt>
      <trkpt lat="46.45046" lon="5.95319">
        <ele>1056.4000244141</ele>
        <time>2014-05-31T12:35:48.000Z</time>
      </trkpt>
      <trkpt lat="46.45047" lon="5.95325">
        <ele>1056.8000488281</ele>
        <time>2014-05-31T12:35:50.000Z</time>
      </trkpt>
      <trkpt lat="46.45057" lon="5.95348">
        <ele>1058.5999755859</ele>
        <time>2014-05-31T12:35:56.000Z</time>
      </trkpt>
      <trkpt lat="46.45063" lon="5.95366">
        <ele>1060.1999511719</ele>
        <time>2014-05-31T12:36:00.000Z</time>
      </trkpt>
      <trkpt lat="46.45066" lon="5.95379">
        <ele>1061.1999511719</ele>
        <time>2014-05-31T12:36:04.000Z</time>
      </trkpt>
      <trkpt lat="46.45067" lon="5.95388">
        <ele>1061.8000488281</ele>
        <time>2014-05-31T12:36:09.000Z</time>
      </trkpt>
      <trkpt lat="46.45067" lon="5.95389">
        <ele>1061.8000488281</ele>
        <time>2014-05-31T12:36:10.000Z</time>
      </trkpt>
      <trkpt lat="46.45069" lon="5.95392">
        <ele>1062</ele>
        <time>2014-05-31T12:36:12.000Z</time>
      </trkpt>
      <trkpt lat="46.45068" lon="5.95396">
        <ele>1062.4000244141</ele>
        <time>2014-05-31T12:36:14.000Z</time>
      </trkpt>
      <trkpt lat="46.45078" lon="5.95412">
        <ele>1063.1999511719</ele>
        <time>2014-05-31T12:36:20.000Z</time>
      </trkpt>
      <trkpt lat="46.45086" lon="5.95422">
        <ele>1064</ele>
        <time>2014-05-31T12:36:25.000Z</time>
      </trkpt>
      <trkpt lat="46.4509" lon="5.95432">
        <ele>1064.5999755859</ele>
        <time>2014-05-31T12:36:30.000Z</time>
      </trkpt>
      <trkpt lat="46.45088" lon="5.95439">
        <ele>1064.8000488281</ele>
        <time>2014-05-31T12:36:33.000Z</time>
      </trkpt>
      <trkpt lat="46.45088" lon="5.95444">
        <ele>1065</ele>
        <time>2014-05-31T12:36:36.000Z</time>
      </trkpt>
      <trkpt lat="46.45084" lon="5.95454">
        <ele>1065.4000244141</ele>
        <time>2014-05-31T12:36:41.000Z</time>
      </trkpt>
      <trkpt lat="46.45083" lon="5.95462">
        <ele>1065.8000488281</ele>
        <time>2014-05-31T12:36:46.000Z</time>
      </trkpt>
      <trkpt lat="46.45083" lon="5.9547">
        <ele>1066.1999511719</ele>
        <time>2014-05-31T12:36:51.000Z</time>
      </trkpt>
      <trkpt lat="46.4509" lon="5.95478">
        <ele>1066.5999755859</ele>
        <time>2014-05-31T12:36:57.000Z</time>
      </trkpt>
      <trkpt lat="46.45098" lon="5.95488">
        <ele>1067</ele>
        <time>2014-05-31T12:37:03.000Z</time>
      </trkpt>
      <trkpt lat="46.451" lon="5.9549">
        <ele>1067.1999511719</ele>
        <time>2014-05-31T12:37:04.000Z</time>
      </trkpt>
      <trkpt lat="46.45108" lon="5.95506">
        <ele>1067.8000488281</ele>
        <time>2014-05-31T12:37:10.000Z</time>
      </trkpt>
      <trkpt lat="46.45109" lon="5.95509">
        <ele>1067.8000488281</ele>
        <time>2014-05-31T12:37:11.000Z</time>
      </trkpt>
      <trkpt lat="46.45103" lon="5.9552">
        <ele>1068</ele>
        <time>2014-05-31T12:37:17.000Z</time>
      </trkpt>
      <trkpt lat="46.45103" lon="5.95523">
        <ele>1068</ele>
        <time>2014-05-31T12:37:20.000Z</time>
      </trkpt>
      <trkpt lat="46.45102" lon="5.95528">
        <ele>1068.1999511719</ele>
        <time>2014-05-31T12:37:27.000Z</time>
      </trkpt>
      <trkpt lat="46.451" lon="5.9553">
        <ele>1068.1999511719</ele>
        <time>2014-05-31T12:37:32.000Z</time>
      </trkpt>
      <trkpt lat="46.45099" lon="5.95535">
        <ele>1068.1999511719</ele>
        <time>2014-05-31T12:37:40.000Z</time>
      </trkpt>
      <trkpt lat="46.45096" lon="5.95539">
        <ele>1068.1999511719</ele>
        <time>2014-05-31T12:37:45.000Z</time>
      </trkpt>
      <trkpt lat="46.45098" lon="5.9554">
        <ele>1068.4000244141</ele>
        <time>2014-05-31T12:37:51.000Z</time>
      </trkpt>
      <trkpt lat="46.45098" lon="5.95538">
        <ele>1068.4000244141</ele>
        <time>2014-05-31T12:37:52.000Z</time>
      </trkpt>
      <trkpt lat="46.45106" lon="5.95527">
        <ele>1068.1999511719</ele>
        <time>2014-05-31T12:37:57.000Z</time>
      </trkpt>
      <trkpt lat="46.45115" lon="5.95537">
        <ele>1068.5999755859</ele>
        <time>2014-05-31T12:38:03.000Z</time>
      </trkpt>
      <trkpt lat="46.45121" lon="5.95547">
        <ele>1069</ele>
        <time>2014-05-31T12:38:07.000Z</time>
      </trkpt>
      <trkpt lat="46.45129" lon="5.95553">
        <ele>1069.4000244141</ele>
        <time>2014-05-31T12:38:11.000Z</time>
      </trkpt>
      <trkpt lat="46.45129" lon="5.9556">
        <ele>1069.4000244141</ele>
        <time>2014-05-31T12:38:14.000Z</time>
      </trkpt>
      <trkpt lat="46.45131" lon="5.95565">
        <ele>1069.4000244141</ele>
        <time>2014-05-31T12:38:16.000Z</time>
      </trkpt>
      <trkpt lat="46.45138" lon="5.95578">
        <ele>1069</ele>
        <time>2014-05-31T12:38:22.000Z</time>
      </trkpt>
      <trkpt lat="46.45139" lon="5.9558">
        <ele>1069</ele>
        <time>2014-05-31T12:38:23.000Z</time>
      </trkpt>
      <trkpt lat="46.45144" lon="5.95591">
        <ele>1068.5999755859</ele>
        <time>2014-05-31T12:38:28.000Z</time>
      </trkpt>
      <trkpt lat="46.45148" lon="5.95601">
        <ele>1068.4000244141</ele>
        <time>2014-05-31T12:38:32.000Z</time>
      </trkpt>
      <trkpt lat="46.45148" lon="5.95602">
        <ele>1068.4000244141</ele>
        <time>2014-05-31T12:38:33.000Z</time>
      </trkpt>
      <trkpt lat="46.45153" lon="5.95607">
        <ele>1067.8000488281</ele>
        <time>2014-05-31T12:38:37.000Z</time>
      </trkpt>
      <trkpt lat="46.45154" lon="5.95622">
        <ele>1067.1999511719</ele>
        <time>2014-05-31T12:38:44.000Z</time>
      </trkpt>
      <trkpt lat="46.45155" lon="5.95628">
        <ele>1067</ele>
        <time>2014-05-31T12:38:47.000Z</time>
      </trkpt>
      <trkpt lat="46.45156" lon="5.95636">
        <ele>1066.5999755859</ele>
        <time>2014-05-31T12:38:52.000Z</time>
      </trkpt>
      <trkpt lat="46.45156" lon="5.95643">
        <ele>1066.4000244141</ele>
        <time>2014-05-31T12:38:57.000Z</time>
      </trkpt>
      <trkpt lat="46.45156" lon="5.95644">
        <ele>1066.4000244141</ele>
        <time>2014-05-31T12:38:58.000Z</time>
      </trkpt>
      <trkpt lat="46.45151" lon="5.95648">
        <ele>1066.8000488281</ele>
        <time>2014-05-31T12:39:02.000Z</time>
      </trkpt>
      <trkpt lat="46.45144" lon="5.95649">
        <ele>1066.8000488281</ele>
        <time>2014-05-31T12:39:08.000Z</time>
      </trkpt>
      <trkpt lat="46.45142" lon="5.95649">
        <ele>1066.8000488281</ele>
        <time>2014-05-31T12:39:09.000Z</time>
      </trkpt>
      <trkpt lat="46.45135" lon="5.95639">
        <ele>1066.8000488281</ele>
        <time>2014-05-31T12:39:15.000Z</time>
      </trkpt>
      <trkpt lat="46.45138" lon="5.9564">
        <ele>1066.8000488281</ele>
        <time>2014-05-31T12:39:20.000Z</time>
      </trkpt>
      <trkpt lat="46.45143" lon="5.95644">
        <ele>1066.8000488281</ele>
        <time>2014-05-31T12:39:24.000Z</time>
      </trkpt>
      <trkpt lat="46.45145" lon="5.95643">
        <ele>1066.8000488281</ele>
        <time>2014-05-31T12:39:25.000Z</time>
      </trkpt>
      <trkpt lat="46.45153" lon="5.95642">
        <ele>1066.8000488281</ele>
        <time>2014-05-31T12:39:32.000Z</time>
      </trkpt>
      <trkpt lat="46.45158" lon="5.95646">
        <ele>1066.4000244141</ele>
        <time>2014-05-31T12:39:37.000Z</time>
      </trkpt>
      <trkpt lat="46.4516" lon="5.95647">
        <ele>1066.1999511719</ele>
        <time>2014-05-31T12:39:38.000Z</time>
      </trkpt>
      <trkpt lat="46.45171" lon="5.95665">
        <ele>1065.4000244141</ele>
        <time>2014-05-31T12:39:43.000Z</time>
      </trkpt>
      <trkpt lat="46.45172" lon="5.9567">
        <ele>1065.1999511719</ele>
        <time>2014-05-31T12:39:44.000Z</time>
      </trkpt>
      <trkpt lat="46.45188" lon="5.95694">
        <ele>1063.8000488281</ele>
        <time>2014-05-31T12:39:51.000Z</time>
      </trkpt>
      <trkpt lat="46.45199" lon="5.9571">
        <ele>1063</ele>
        <time>2014-05-31T12:39:56.000Z</time>
      </trkpt>
      <trkpt lat="46.4521" lon="5.9572">
        <ele>1062.1999511719</ele>
        <time>2014-05-31T12:40:02.000Z</time>
      </trkpt>
      <trkpt lat="46.45211" lon="5.9572">
        <ele>1062.1999511719</ele>
        <time>2014-05-31T12:40:03.000Z</time>
      </trkpt>
      <trkpt lat="46.45223" lon="5.95742">
        <ele>1061.5999755859</ele>
        <time>2014-05-31T12:40:09.000Z</time>
      </trkpt>
      <trkpt lat="46.45228" lon="5.95757">
        <ele>1061.5999755859</ele>
        <time>2014-05-31T12:40:12.000Z</time>
      </trkpt>
      <trkpt lat="46.45243" lon="5.95772">
        <ele>1061</ele>
        <time>2014-05-31T12:40:17.000Z</time>
      </trkpt>
      <trkpt lat="46.45254" lon="5.95785">
        <ele>1060.8000488281</ele>
        <time>2014-05-31T12:40:21.000Z</time>
      </trkpt>
      <trkpt lat="46.45256" lon="5.95793">
        <ele>1060.5999755859</ele>
        <time>2014-05-31T12:40:23.000Z</time>
      </trkpt>
      <trkpt lat="46.45264" lon="5.95801">
        <ele>1060.4000244141</ele>
        <time>2014-05-31T12:40:28.000Z</time>
      </trkpt>
      <trkpt lat="46.45273" lon="5.95805">
        <ele>1060</ele>
        <time>2014-05-31T12:40:32.000Z</time>
      </trkpt>
      <trkpt lat="46.45275" lon="5.95805">
        <ele>1060</ele>
        <time>2014-05-31T12:40:33.000Z</time>
      </trkpt>
      <trkpt lat="46.45281" lon="5.95809">
        <ele>1059.5999755859</ele>
        <time>2014-05-31T12:40:38.000Z</time>
      </trkpt>
      <trkpt lat="46.45285" lon="5.9581">
        <ele>1059.4000244141</ele>
        <time>2014-05-31T12:40:41.000Z</time>
      </trkpt>
      <trkpt lat="46.45291" lon="5.95813">
        <ele>1059.1999511719</ele>
        <time>2014-05-31T12:40:48.000Z</time>
      </trkpt>
      <trkpt lat="46.4529" lon="5.9581">
        <ele>1059.1999511719</ele>
        <time>2014-05-31T12:40:50.000Z</time>
      </trkpt>
      <trkpt lat="46.45294" lon="5.95794">
        <ele>1058.8000488281</ele>
        <time>2014-05-31T12:40:55.000Z</time>
      </trkpt>
      <trkpt lat="46.45297" lon="5.95785">
        <ele>1058.5999755859</ele>
        <time>2014-05-31T12:40:57.000Z</time>
      </trkpt>
      <trkpt lat="46.45294" lon="5.95759">
        <ele>1058.4000244141</ele>
        <time>2014-05-31T12:41:02.000Z</time>
      </trkpt>
      <trkpt lat="46.45289" lon="5.95739">
        <ele>1058.4000244141</ele>
        <time>2014-05-31T12:41:06.000Z</time>
      </trkpt>
      <trkpt lat="46.45287" lon="5.95732">
        <ele>1058.4000244141</ele>
        <time>2014-05-31T12:41:08.000Z</time>
      </trkpt>
      <trkpt lat="46.45288" lon="5.95714">
        <ele>1058.1999511719</ele>
        <time>2014-05-31T12:41:14.000Z</time>
      </trkpt>
      <trkpt lat="46.45297" lon="5.95712">
        <ele>1057.8000488281</ele>
        <time>2014-05-31T12:41:18.000Z</time>
      </trkpt>
      <trkpt lat="46.45308" lon="5.95701">
        <ele>1056.8000488281</ele>
        <time>2014-05-31T12:41:22.000Z</time>
      </trkpt>
      <trkpt lat="46.45316" lon="5.9569">
        <ele>1055.8000488281</ele>
        <time>2014-05-31T12:41:27.000Z</time>
      </trkpt>
      <trkpt lat="46.45317" lon="5.95689">
        <ele>1055.5999755859</ele>
        <time>2014-05-31T12:41:28.000Z</time>
      </trkpt>
      <trkpt lat="46.45323" lon="5.95686">
        <ele>1055.1999511719</ele>
        <time>2014-05-31T12:41:35.000Z</time>
      </trkpt>
      <trkpt lat="46.45326" lon="5.95686">
        <ele>1055</ele>
        <time>2014-05-31T12:41:36.000Z</time>
      </trkpt>
      <trkpt lat="46.45331" lon="5.9569">
        <ele>1054.8000488281</ele>
        <time>2014-05-31T12:41:38.000Z</time>
      </trkpt>
      <trkpt lat="46.45348" lon="5.95692">
        <ele>1054</ele>
        <time>2014-05-31T12:41:44.000Z</time>
      </trkpt>
      <trkpt lat="46.45354" lon="5.95691">
        <ele>1053.5999755859</ele>
        <time>2014-05-31T12:41:48.000Z</time>
      </trkpt>
      <trkpt lat="46.45356" lon="5.95685">
        <ele>1053.1999511719</ele>
        <time>2014-05-31T12:41:51.000Z</time>
      </trkpt>
      <trkpt lat="46.45353" lon="5.95678">
        <ele>1053.1999511719</ele>
        <time>2014-05-31T12:41:56.000Z</time>
      </trkpt>
      <trkpt lat="46.45359" lon="5.95675">
        <ele>1052.5999755859</ele>
        <time>2014-05-31T12:42:01.000Z</time>
      </trkpt>
      <trkpt lat="46.45357" lon="5.95667">
        <ele>1052.4000244141</ele>
        <time>2014-05-31T12:42:04.000Z</time>
      </trkpt>
      <trkpt lat="46.45358" lon="5.95655">
        <ele>1052</ele>
        <time>2014-05-31T12:42:10.000Z</time>
      </trkpt>
      <trkpt lat="46.45359" lon="5.95653">
        <ele>1051.8000488281</ele>
        <time>2014-05-31T12:42:12.000Z</time>
      </trkpt>
      <trkpt lat="46.45365" lon="5.95649">
        <ele>1051.4000244141</ele>
        <time>2014-05-31T12:42:16.000Z</time>
      </trkpt>
      <trkpt lat="46.45366" lon="5.95636">
        <ele>1050.8000488281</ele>
        <time>2014-05-31T12:42:21.000Z</time>
      </trkpt>
      <trkpt lat="46.4537" lon="5.95623">
        <ele>1050.1999511719</ele>
        <time>2014-05-31T12:42:27.000Z</time>
      </trkpt>
      <trkpt lat="46.45373" lon="5.95618">
        <ele>1049.8000488281</ele>
        <time>2014-05-31T12:42:29.000Z</time>
      </trkpt>
      <trkpt lat="46.45374" lon="5.95603">
        <ele>1048.8000488281</ele>
        <time>2014-05-31T12:42:34.000Z</time>
      </trkpt>
      <trkpt lat="46.45378" lon="5.95591">
        <ele>1047.8000488281</ele>
        <time>2014-05-31T12:42:39.000Z</time>
      </trkpt>
      <trkpt lat="46.45374" lon="5.95582">
        <ele>1047.5999755859</ele>
        <time>2014-05-31T12:42:43.000Z</time>
      </trkpt>
      <trkpt lat="46.45371" lon="5.95572">
        <ele>1047.1999511719</ele>
        <time>2014-05-31T12:42:48.000Z</time>
      </trkpt>
      <trkpt lat="46.45367" lon="5.95563">
        <ele>1047</ele>
        <time>2014-05-31T12:42:52.000Z</time>
      </trkpt>
      <trkpt lat="46.45368" lon="5.95554">
        <ele>1046.4000244141</ele>
        <time>2014-05-31T12:42:56.000Z</time>
      </trkpt>
      <trkpt lat="46.45369" lon="5.95552">
        <ele>1046.1999511719</ele>
        <time>2014-05-31T12:42:57.000Z</time>
      </trkpt>
      <trkpt lat="46.45374" lon="5.95545">
        <ele>1045.5999755859</ele>
        <time>2014-05-31T12:43:00.000Z</time>
      </trkpt>
      <trkpt lat="46.45378" lon="5.95531">
        <ele>1044.1999511719</ele>
        <time>2014-05-31T12:43:06.000Z</time>
      </trkpt>
      <trkpt lat="46.45378" lon="5.95528">
        <ele>1044</ele>
        <time>2014-05-31T12:43:07.000Z</time>
      </trkpt>
      <trkpt lat="46.45383" lon="5.9551">
        <ele>1041.5999755859</ele>
        <time>2014-05-31T12:43:13.000Z</time>
      </trkpt>
      <trkpt lat="46.45391" lon="5.955">
        <ele>1039.5999755859</ele>
        <time>2014-05-31T12:43:17.000Z</time>
      </trkpt>
      <trkpt lat="46.45395" lon="5.95487">
        <ele>1037.8000488281</ele>
        <time>2014-05-31T12:43:23.000Z</time>
      </trkpt>
      <trkpt lat="46.45395" lon="5.95471">
        <ele>1036.4000244141</ele>
        <time>2014-05-31T12:43:28.000Z</time>
      </trkpt>
      <trkpt lat="46.45392" lon="5.95468">
        <ele>1036.4000244141</ele>
        <time>2014-05-31T12:43:34.000Z</time>
      </trkpt>
      <trkpt lat="46.45392" lon="5.95468">
        <ele>1036.4000244141</ele>
        <time>2014-05-31T12:43:35.000Z</time>
      </trkpt>
      <trkpt lat="46.45387" lon="5.9547">
        <ele>1037.1999511719</ele>
        <time>2014-05-31T12:43:39.000Z</time>
      </trkpt>
      <trkpt lat="46.45375" lon="5.95465">
        <ele>1038.4000244141</ele>
        <time>2014-05-31T12:43:44.000Z</time>
      </trkpt>
      <trkpt lat="46.45374" lon="5.95464">
        <ele>1038.5999755859</ele>
        <time>2014-05-31T12:43:45.000Z</time>
      </trkpt>
      <trkpt lat="46.45369" lon="5.95453">
        <ele>1038.4000244141</ele>
        <time>2014-05-31T12:43:50.000Z</time>
      </trkpt>
      <trkpt lat="46.45365" lon="5.95438">
        <ele>1037.8000488281</ele>
        <time>2014-05-31T12:43:55.000Z</time>
      </trkpt>
      <trkpt lat="46.45365" lon="5.95437">
        <ele>1037.8000488281</ele>
        <time>2014-05-31T12:43:57.000Z</time>
      </trkpt>
      <trkpt lat="46.45361" lon="5.95432">
        <ele>1038</ele>
        <time>2014-05-31T12:44:01.000Z</time>
      </trkpt>
      <trkpt lat="46.45362" lon="5.95433">
        <ele>1038</ele>
        <time>2014-05-31T12:44:11.000Z</time>
      </trkpt>
      <trkpt lat="46.45363" lon="5.95433">
        <ele>1037.8000488281</ele>
        <time>2014-05-31T12:44:13.000Z</time>
      </trkpt>
      <trkpt lat="46.45363" lon="5.95413">
        <ele>1036.1999511719</ele>
        <time>2014-05-31T12:44:18.000Z</time>
      </trkpt>
      <trkpt lat="46.45364" lon="5.95403">
        <ele>1035</ele>
        <time>2014-05-31T12:44:22.000Z</time>
      </trkpt>
      <trkpt lat="46.45363" lon="5.95398">
        <ele>1034.8000488281</ele>
        <time>2014-05-31T12:44:24.000Z</time>
      </trkpt>
      <trkpt lat="46.45352" lon="5.95371">
        <ele>1033.4000244141</ele>
        <time>2014-05-31T12:44:30.000Z</time>
      </trkpt>
      <trkpt lat="46.45348" lon="5.95354">
        <ele>1031.8000488281</ele>
        <time>2014-05-31T12:44:34.000Z</time>
      </trkpt>
      <trkpt lat="46.45347" lon="5.95357">
        <ele>1032.4000244141</ele>
        <time>2014-05-31T12:44:37.000Z</time>
      </trkpt>
      <trkpt lat="46.45346" lon="5.95358">
        <ele>1032.5999755859</ele>
        <time>2014-05-31T12:44:39.000Z</time>
      </trkpt>
      <trkpt lat="46.45341" lon="5.95362">
        <ele>1033.8000488281</ele>
        <time>2014-05-31T12:44:44.000Z</time>
      </trkpt>
      <trkpt lat="46.45343" lon="5.95353">
        <ele>1032.5999755859</ele>
        <time>2014-05-31T12:44:50.000Z</time>
      </trkpt>
      <trkpt lat="46.45339" lon="5.95347">
        <ele>1032.4000244141</ele>
        <time>2014-05-31T12:44:54.000Z</time>
      </trkpt>
      <trkpt lat="46.45326" lon="5.95342">
        <ele>1033.8000488281</ele>
        <time>2014-05-31T12:45:00.000Z</time>
      </trkpt>
      <trkpt lat="46.45321" lon="5.95338">
        <ele>1034</ele>
        <time>2014-05-31T12:45:06.000Z</time>
      </trkpt>
      <trkpt lat="46.45319" lon="5.95337">
        <ele>1034.1999511719</ele>
        <time>2014-05-31T12:45:08.000Z</time>
      </trkpt>
      <trkpt lat="46.45314" lon="5.95332">
        <ele>1034.1999511719</ele>
        <time>2014-05-31T12:45:13.000Z</time>
      </trkpt>
      <trkpt lat="46.45308" lon="5.95329">
        <ele>1034.4000244141</ele>
        <time>2014-05-31T12:45:15.000Z</time>
      </trkpt>
      <trkpt lat="46.45304" lon="5.95324">
        <ele>1034.4000244141</ele>
        <time>2014-05-31T12:45:20.000Z</time>
      </trkpt>
      <trkpt lat="46.45303" lon="5.95323">
        <ele>1034.4000244141</ele>
        <time>2014-05-31T12:45:23.000Z</time>
      </trkpt>
      <trkpt lat="46.45296" lon="5.95325">
        <ele>1035.1999511719</ele>
        <time>2014-05-31T12:45:29.000Z</time>
      </trkpt>
      <trkpt lat="46.45295" lon="5.95325">
        <ele>1035.4000244141</ele>
        <time>2014-05-31T12:45:30.000Z</time>
      </trkpt>
      <trkpt lat="46.45289" lon="5.95329">
        <ele>1036.4000244141</ele>
        <time>2014-05-31T12:45:35.000Z</time>
      </trkpt>
      <trkpt lat="46.45287" lon="5.95331">
        <ele>1037</ele>
        <time>2014-05-31T12:45:37.000Z</time>
      </trkpt>
      <trkpt lat="46.4528" lon="5.95335">
        <ele>1038.1999511719</ele>
        <time>2014-05-31T12:45:41.000Z</time>
      </trkpt>
      <trkpt lat="46.45269" lon="5.95333">
        <ele>1039</ele>
        <time>2014-05-31T12:45:47.000Z</time>
      </trkpt>
      <trkpt lat="46.45268" lon="5.95333">
        <ele>1039.1999511719</ele>
        <time>2014-05-31T12:45:48.000Z</time>
      </trkpt>
      <trkpt lat="46.45266" lon="5.95334">
        <ele>1039.5999755859</ele>
        <time>2014-05-31T12:45:51.000Z</time>
      </trkpt>
      <trkpt lat="46.45266" lon="5.95333">
        <ele>1039.4000244141</ele>
        <time>2014-05-31T12:45:53.000Z</time>
      </trkpt>
      <trkpt lat="46.45264" lon="5.95327">
        <ele>1039</ele>
        <time>2014-05-31T12:46:00.000Z</time>
      </trkpt>
      <trkpt lat="46.4526" lon="5.95327">
        <ele>1039.4000244141</ele>
        <time>2014-05-31T12:46:03.000Z</time>
      </trkpt>
      <trkpt lat="46.45257" lon="5.95317">
        <ele>1038.4000244141</ele>
        <time>2014-05-31T12:46:08.000Z</time>
      </trkpt>
      <trkpt lat="46.45256" lon="5.95315">
        <ele>1038.4000244141</ele>
        <time>2014-05-31T12:46:09.000Z</time>
      </trkpt>
      <trkpt lat="46.45251" lon="5.95312">
        <ele>1038.5999755859</ele>
        <time>2014-05-31T12:46:14.000Z</time>
      </trkpt>
      <trkpt lat="46.4525" lon="5.95311">
        <ele>1038.4000244141</ele>
        <time>2014-05-31T12:46:15.000Z</time>
      </trkpt>
      <trkpt lat="46.45246" lon="5.95307">
        <ele>1038.4000244141</ele>
        <time>2014-05-31T12:46:18.000Z</time>
      </trkpt>
      <trkpt lat="46.45236" lon="5.95299">
        <ele>1038.4000244141</ele>
        <time>2014-05-31T12:46:24.000Z</time>
      </trkpt>
      <trkpt lat="46.45229" lon="5.95286">
        <ele>1037.8000488281</ele>
        <time>2014-05-31T12:46:29.000Z</time>
      </trkpt>
      <trkpt lat="46.45227" lon="5.95282">
        <ele>1037.8000488281</ele>
        <time>2014-05-31T12:46:31.000Z</time>
      </trkpt>
      <trkpt lat="46.45223" lon="5.95279">
        <ele>1038</ele>
        <time>2014-05-31T12:46:34.000Z</time>
      </trkpt>
      <trkpt lat="46.4522" lon="5.9528">
        <ele>1038.5999755859</ele>
        <time>2014-05-31T12:46:40.000Z</time>
      </trkpt>
      <trkpt lat="46.4522" lon="5.95277">
        <ele>1038.1999511719</ele>
        <time>2014-05-31T12:46:43.000Z</time>
      </trkpt>
      <trkpt lat="46.45213" lon="5.95263">
        <ele>1037.5999755859</ele>
        <time>2014-05-31T12:46:48.000Z</time>
      </trkpt>
      <trkpt lat="46.45208" lon="5.95248">
        <ele>1036.5999755859</ele>
        <time>2014-05-31T12:46:52.000Z</time>
      </trkpt>
      <trkpt lat="46.45206" lon="5.95239">
        <ele>1035.8000488281</ele>
        <time>2014-05-31T12:46:57.000Z</time>
      </trkpt>
      <trkpt lat="46.45204" lon="5.95236">
        <ele>1035.8000488281</ele>
        <time>2014-05-31T12:47:01.000Z</time>
      </trkpt>
      <trkpt lat="46.45202" lon="5.95235">
        <ele>1035.8000488281</ele>
        <time>2014-05-31T12:47:08.000Z</time>
      </trkpt>
      <trkpt lat="46.45202" lon="5.95232">
        <ele>1035.5999755859</ele>
        <time>2014-05-31T12:47:12.000Z</time>
      </trkpt>
      <trkpt lat="46.45201" lon="5.95233">
        <ele>1035.8000488281</ele>
        <time>2014-05-31T12:47:18.000Z</time>
      </trkpt>
      <trkpt lat="46.452" lon="5.95232">
        <ele>1035.8000488281</ele>
        <time>2014-05-31T12:47:28.000Z</time>
      </trkpt>
      <trkpt lat="46.45198" lon="5.95235">
        <ele>1036.5999755859</ele>
        <time>2014-05-31T12:47:37.000Z</time>
      </trkpt>
      <trkpt lat="46.45201" lon="5.95235">
        <ele>1036.1999511719</ele>
        <time>2014-05-31T12:47:49.000Z</time>
      </trkpt>
      <trkpt lat="46.45203" lon="5.95231">
        <ele>1035.1999511719</ele>
        <time>2014-05-31T12:47:54.000Z</time>
      </trkpt>
      <trkpt lat="46.4521" lon="5.95213">
        <ele>1032</ele>
        <time>2014-05-31T12:47:59.000Z</time>
      </trkpt>
      <trkpt lat="46.45211" lon="5.95199">
        <ele>1030.1999511719</ele>
        <time>2014-05-31T12:48:03.000Z</time>
      </trkpt>
      <trkpt lat="46.45218" lon="5.95179">
        <ele>1027.4000244141</ele>
        <time>2014-05-31T12:48:08.000Z</time>
      </trkpt>
      <trkpt lat="46.45229" lon="5.95172">
        <ele>1025.1999511719</ele>
        <time>2014-05-31T12:48:12.000Z</time>
      </trkpt>
      <trkpt lat="46.4524" lon="5.95161">
        <ele>1023</ele>
        <time>2014-05-31T12:48:17.000Z</time>
      </trkpt>
      <trkpt lat="46.45248" lon="5.95144">
        <ele>1021.4000244141</ele>
        <time>2014-05-31T12:48:22.000Z</time>
      </trkpt>
      <trkpt lat="46.45253" lon="5.95123">
        <ele>1020.5999755859</ele>
        <time>2014-05-31T12:48:27.000Z</time>
      </trkpt>
      <trkpt lat="46.45262" lon="5.95112">
        <ele>1019.799987793</ele>
        <time>2014-05-31T12:48:31.000Z</time>
      </trkpt>
      <trkpt lat="46.45263" lon="5.95109">
        <ele>1019.799987793</ele>
        <time>2014-05-31T12:48:32.000Z</time>
      </trkpt>
      <trkpt lat="46.45268" lon="5.95095">
        <ele>1019.200012207</ele>
        <time>2014-05-31T12:48:36.000Z</time>
      </trkpt>
      <trkpt lat="46.45267" lon="5.95085">
        <ele>1019</ele>
        <time>2014-05-31T12:48:39.000Z</time>
      </trkpt>
      <trkpt lat="46.45263" lon="5.95063">
        <ele>1018.4000244141</ele>
        <time>2014-05-31T12:48:44.000Z</time>
      </trkpt>
      <trkpt lat="46.45263" lon="5.95057">
        <ele>1018.200012207</ele>
        <time>2014-05-31T12:48:46.000Z</time>
      </trkpt>
      <trkpt lat="46.45268" lon="5.9505">
        <ele>1017.5999755859</ele>
        <time>2014-05-31T12:48:50.000Z</time>
      </trkpt>
      <trkpt lat="46.45276" lon="5.95035">
        <ele>1016.799987793</ele>
        <time>2014-05-31T12:48:56.000Z</time>
      </trkpt>
      <trkpt lat="46.45278" lon="5.95024">
        <ele>1016.4000244141</ele>
        <time>2014-05-31T12:49:01.000Z</time>
      </trkpt>
      <trkpt lat="46.45281" lon="5.95011">
        <ele>1016.200012207</ele>
        <time>2014-05-31T12:49:05.000Z</time>
      </trkpt>
      <trkpt lat="46.45284" lon="5.95">
        <ele>1016.200012207</ele>
        <time>2014-05-31T12:49:09.000Z</time>
      </trkpt>
      <trkpt lat="46.45285" lon="5.94992">
        <ele>1016.200012207</ele>
        <time>2014-05-31T12:49:14.000Z</time>
      </trkpt>
      <trkpt lat="46.45285" lon="5.94996">
        <ele>1016</ele>
        <time>2014-05-31T12:49:25.000Z</time>
      </trkpt>
      <trkpt lat="46.45288" lon="5.94992">
        <ele>1016</ele>
        <time>2014-05-31T12:49:31.000Z</time>
      </trkpt>
      <trkpt lat="46.45292" lon="5.94987">
        <ele>1015.799987793</ele>
        <time>2014-05-31T12:49:35.000Z</time>
      </trkpt>
      <trkpt lat="46.4529" lon="5.94973">
        <ele>1016</ele>
        <time>2014-05-31T12:49:40.000Z</time>
      </trkpt>
      <trkpt lat="46.4529" lon="5.94967">
        <ele>1015.799987793</ele>
        <time>2014-05-31T12:49:42.000Z</time>
      </trkpt>
      <trkpt lat="46.45291" lon="5.94964">
        <ele>1015.5999755859</ele>
        <time>2014-05-31T12:49:44.000Z</time>
      </trkpt>
      <trkpt lat="46.45293" lon="5.94961">
        <ele>1015.4000244141</ele>
        <time>2014-05-31T12:49:47.000Z</time>
      </trkpt>
      <trkpt lat="46.45294" lon="5.94959">
        <ele>1015.4000244141</ele>
        <time>2014-05-31T12:49:49.000Z</time>
      </trkpt>
      <trkpt lat="46.45294" lon="5.94956">
        <ele>1015.4000244141</ele>
        <time>2014-05-31T12:49:51.000Z</time>
      </trkpt>
      <trkpt lat="46.45302" lon="5.94946">
        <ele>1014.4000244141</ele>
        <time>2014-05-31T12:49:57.000Z</time>
      </trkpt>
      <trkpt lat="46.45302" lon="5.9494">
        <ele>1014</ele>
        <time>2014-05-31T12:50:00.000Z</time>
      </trkpt>
      <trkpt lat="46.45314" lon="5.94931">
        <ele>1012.5999755859</ele>
        <time>2014-05-31T12:50:07.000Z</time>
      </trkpt>
      <trkpt lat="46.45317" lon="5.94928">
        <ele>1012</ele>
        <time>2014-05-31T12:50:11.000Z</time>
      </trkpt>
      <trkpt lat="46.45319" lon="5.94931">
        <ele>1012</ele>
        <time>2014-05-31T12:50:15.000Z</time>
      </trkpt>
      <trkpt lat="46.45316" lon="5.94938">
        <ele>1012.799987793</ele>
        <time>2014-05-31T12:50:20.000Z</time>
      </trkpt>
      <trkpt lat="46.45304" lon="5.9494">
        <ele>1013.799987793</ele>
        <time>2014-05-31T12:50:27.000Z</time>
      </trkpt>
      <trkpt lat="46.45297" lon="5.94925">
        <ele>1013.4000244141</ele>
        <time>2014-05-31T12:50:32.000Z</time>
      </trkpt>
      <trkpt lat="46.4529" lon="5.94919">
        <ele>1013.5999755859</ele>
        <time>2014-05-31T12:50:35.000Z</time>
      </trkpt>
      <trkpt lat="46.45285" lon="5.94914">
        <ele>1013.5999755859</ele>
        <time>2014-05-31T12:50:39.000Z</time>
      </trkpt>
      <trkpt lat="46.45298" lon="5.9492">
        <ele>1013</ele>
        <time>2014-05-31T12:50:45.000Z</time>
      </trkpt>
      <trkpt lat="46.45313" lon="5.94928">
        <ele>1012.4000244141</ele>
        <time>2014-05-31T12:50:50.000Z</time>
      </trkpt>
      <trkpt lat="46.45321" lon="5.9493">
        <ele>1011.5999755859</ele>
        <time>2014-05-31T12:50:52.000Z</time>
      </trkpt>
      <trkpt lat="46.45338" lon="5.94938">
        <ele>1009.200012207</ele>
        <time>2014-05-31T12:50:57.000Z</time>
      </trkpt>
      <trkpt lat="46.45356" lon="5.94946">
        <ele>1006.5999755859</ele>
        <time>2014-05-31T12:51:02.000Z</time>
      </trkpt>
      <trkpt lat="46.4537" lon="5.94956">
        <ele>1004.799987793</ele>
        <time>2014-05-31T12:51:06.000Z</time>
      </trkpt>
      <trkpt lat="46.45377" lon="5.94969">
        <ele>1004.4000244141</ele>
        <time>2014-05-31T12:51:10.000Z</time>
      </trkpt>
      <trkpt lat="46.45388" lon="5.94982">
        <ele>1003.200012207</ele>
        <time>2014-05-31T12:51:14.000Z</time>
      </trkpt>
      <trkpt lat="46.45393" lon="5.94988">
        <ele>1003</ele>
        <time>2014-05-31T12:51:17.000Z</time>
      </trkpt>
      <trkpt lat="46.45402" lon="5.94996">
        <ele>1002</ele>
        <time>2014-05-31T12:51:22.000Z</time>
      </trkpt>
      <trkpt lat="46.4541" lon="5.94992">
        <ele>1001</ele>
        <time>2014-05-31T12:51:26.000Z</time>
      </trkpt>
      <trkpt lat="46.45419" lon="5.95002">
        <ele>1000.5999755859</ele>
        <time>2014-05-31T12:51:30.000Z</time>
      </trkpt>
      <trkpt lat="46.45428" lon="5.95015">
        <ele>1000.4000244141</ele>
        <time>2014-05-31T12:51:33.000Z</time>
      </trkpt>
      <trkpt lat="46.45443" lon="5.9504">
        <ele>1000.200012207</ele>
        <time>2014-05-31T12:51:38.000Z</time>
      </trkpt>
      <trkpt lat="46.45458" lon="5.95072">
        <ele>1000.799987793</ele>
        <time>2014-05-31T12:51:44.000Z</time>
      </trkpt>
      <trkpt lat="46.45462" lon="5.95096">
        <ele>1002</ele>
        <time>2014-05-31T12:51:48.000Z</time>
      </trkpt>
      <trkpt lat="46.45473" lon="5.95122">
        <ele>1002.5999755859</ele>
        <time>2014-05-31T12:51:53.000Z</time>
      </trkpt>
      <trkpt lat="46.45474" lon="5.95125">
        <ele>1002.799987793</ele>
        <time>2014-05-31T12:51:54.000Z</time>
      </trkpt>
    </trkseg>
  </trk>
</gpx>